<?xml version="1.0" encoding="UTF-8" standalone="no" ?>
<gpx xmlns="http://www.topografix.com/GPX/1/1" xmlns:xsi="http://www.w3.org/2001/XMLSchema-instance" xsi:schemaLocation="http://www.topografix.com/GPX/1/1 http://www.topografix.com/GPX/1/1/gpx.xsd" version="1.1" creator="VisuGPX - https://www.visugpx.com">
  <metadata>
    <name>Les Monts, Les Endroits</name>
  </metadata>
  <trk>
    <name><![CDATA[Les Monts, Les Endroits]]></name>
    <extensions>
      <line xmlns="http://www.topografix.com/GPX/gpx_style/0/2">
        <color>0000FF</color>
        <width>4</width>
      </line>
    </extensions>
    <trkseg>
      <trkpt lat="47.07093" lon="6.75648">
        <ele>1079.53</ele>
        <time>2021-07-03T07:50:00.000Z</time>
      </trkpt>
      <trkpt lat="47.07092" lon="6.75647">
        <ele>1079.53</ele>
        <time>2021-07-03T07:50:01.022Z</time>
      </trkpt>
      <trkpt lat="47.07094" lon="6.75648">
        <ele>1079.64</ele>
        <time>2021-07-03T07:50:04.184Z</time>
      </trkpt>
      <trkpt lat="47.07159" lon="6.75695">
        <ele>1084.0600000069</ele>
        <time>2021-07-03T07:51:59.466Z</time>
      </trkpt>
      <trkpt lat="47.07185" lon="6.75714">
        <ele>1086.5</ele>
        <time>2021-07-03T07:52:54.641Z</time>
      </trkpt>
      <trkpt lat="47.07198" lon="6.75725">
        <ele>1086.86</ele>
        <time>2021-07-03T07:53:10.878Z</time>
      </trkpt>
      <trkpt lat="47.07256" lon="6.75768">
        <ele>1090.4700000112</ele>
        <time>2021-07-03T07:54:50.432Z</time>
      </trkpt>
      <trkpt lat="47.07274" lon="6.75782">
        <ele>1091.76</ele>
        <time>2021-07-03T07:55:23.383Z</time>
      </trkpt>
      <trkpt lat="47.07308" lon="6.75809">
        <ele>1093.57</ele>
        <time>2021-07-03T07:56:19.289Z</time>
      </trkpt>
      <trkpt lat="47.0732" lon="6.75815">
        <ele>1093.9999999993</ele>
        <time>2021-07-03T07:56:34.817Z</time>
      </trkpt>
      <trkpt lat="47.07401" lon="6.75848">
        <ele>1099.59</ele>
        <time>2021-07-03T07:58:53.965Z</time>
      </trkpt>
      <trkpt lat="47.07458" lon="6.7587">
        <ele>1105.8900000329</ele>
        <time>2021-07-03T08:01:12.693Z</time>
      </trkpt>
      <trkpt lat="47.07476" lon="6.75877">
        <ele>1108.23</ele>
        <time>2021-07-03T08:02:07.216Z</time>
      </trkpt>
      <trkpt lat="47.07481" lon="6.75877">
        <ele>1108.8</ele>
        <time>2021-07-03T08:02:19.929Z</time>
      </trkpt>
      <trkpt lat="47.07489" lon="6.75876">
        <ele>1109.4200000585</ele>
        <time>2021-07-03T08:02:34.356Z</time>
      </trkpt>
      <trkpt lat="47.07492" lon="6.75875">
        <ele>1109.8299999798</ele>
        <time>2021-07-03T08:02:44.352Z</time>
      </trkpt>
      <trkpt lat="47.075" lon="6.75872">
        <ele>1110.3899999907</ele>
        <time>2021-07-03T08:02:58.154Z</time>
      </trkpt>
      <trkpt lat="47.07519" lon="6.75863">
        <ele>1112.5200000071</ele>
        <time>2021-07-03T08:03:45.047Z</time>
      </trkpt>
      <trkpt lat="47.07534" lon="6.75856">
        <ele>1112.92</ele>
        <time>2021-07-03T08:04:02.368Z</time>
      </trkpt>
      <trkpt lat="47.0754" lon="6.75851">
        <ele>1113.7200000098</ele>
        <time>2021-07-03T08:04:20.306Z</time>
      </trkpt>
      <trkpt lat="47.07544" lon="6.75847">
        <ele>1114.52</ele>
        <time>2021-07-03T08:04:36.067Z</time>
      </trkpt>
      <trkpt lat="47.07547" lon="6.75839">
        <ele>1115.3200000022</ele>
        <time>2021-07-03T08:04:55.007Z</time>
      </trkpt>
      <trkpt lat="47.07549" lon="6.75832">
        <ele>1115.7199999779</ele>
        <time>2021-07-03T08:05:04.307Z</time>
      </trkpt>
      <trkpt lat="47.07549" lon="6.75823">
        <ele>1116.92</ele>
        <time>2021-07-03T08:05:24.269Z</time>
      </trkpt>
      <trkpt lat="47.07546" lon="6.75802">
        <ele>1118.5199999887</ele>
        <time>2021-07-03T08:05:59.625Z</time>
      </trkpt>
      <trkpt lat="47.07539" lon="6.75768">
        <ele>1122.3100000254</ele>
        <time>2021-07-03T08:07:18.406Z</time>
      </trkpt>
      <trkpt lat="47.07538" lon="6.75755">
        <ele>1123.310000032</ele>
        <time>2021-07-03T08:07:40.618Z</time>
      </trkpt>
      <trkpt lat="47.07539" lon="6.75744">
        <ele>1124.19</ele>
        <time>2021-07-03T08:08:00.378Z</time>
      </trkpt>
      <trkpt lat="47.07541" lon="6.75732">
        <ele>1125.4600000611</ele>
        <time>2021-07-03T08:08:27.779Z</time>
      </trkpt>
      <trkpt lat="47.07544" lon="6.75724">
        <ele>1126.19</ele>
        <time>2021-07-03T08:08:44.218Z</time>
      </trkpt>
      <trkpt lat="47.07548" lon="6.75718">
        <ele>1126.8000000368</ele>
        <time>2021-07-03T08:08:57.647Z</time>
      </trkpt>
      <trkpt lat="47.07552" lon="6.75713">
        <ele>1127.2199999577</ele>
        <time>2021-07-03T08:09:07.296Z</time>
      </trkpt>
      <trkpt lat="47.07558" lon="6.75707">
        <ele>1128.1199999991</ele>
        <time>2021-07-03T08:09:28.096Z</time>
      </trkpt>
      <trkpt lat="47.07566" lon="6.75702">
        <ele>1129.04</ele>
        <time>2021-07-03T08:09:48.333Z</time>
      </trkpt>
      <trkpt lat="47.07576" lon="6.75698">
        <ele>1130.3700000097</ele>
        <time>2021-07-03T08:10:19.766Z</time>
      </trkpt>
      <trkpt lat="47.07583" lon="6.757">
        <ele>1131.6200000301</ele>
        <time>2021-07-03T08:10:42.991Z</time>
      </trkpt>
      <trkpt lat="47.07589" lon="6.75702">
        <ele>1132.5800000866</ele>
        <time>2021-07-03T08:11:03.028Z</time>
      </trkpt>
      <trkpt lat="47.07594" lon="6.75705">
        <ele>1134.67</ele>
        <time>2021-07-03T08:11:20.619Z</time>
      </trkpt>
      <trkpt lat="47.07594" lon="6.75705">
        <ele>1134.67</ele>
        <time>2021-07-03T08:11:20.619Z</time>
      </trkpt>
      <trkpt lat="47.07594" lon="6.75705">
        <ele>1134.67</ele>
        <time>2021-07-03T08:11:20.619Z</time>
      </trkpt>
      <trkpt lat="47.07624" lon="6.75723">
        <ele>1136.7600000042</ele>
        <time>2021-07-03T08:12:13.485Z</time>
      </trkpt>
      <trkpt lat="47.07631" lon="6.75727">
        <ele>1137.3800000083</ele>
        <time>2021-07-03T08:12:27.580Z</time>
      </trkpt>
      <trkpt lat="47.07637" lon="6.75728">
        <ele>1137.5999999926</ele>
        <time>2021-07-03T08:12:35.232Z</time>
      </trkpt>
      <trkpt lat="47.07663" lon="6.75727">
        <ele>1139.73</ele>
        <time>2021-07-03T08:13:23.776Z</time>
      </trkpt>
      <trkpt lat="47.07673" lon="6.75722">
        <ele>1140.44</ele>
        <time>2021-07-03T08:13:41.354Z</time>
      </trkpt>
      <trkpt lat="47.07698" lon="6.75687">
        <ele>1144.58</ele>
        <time>2021-07-03T08:15:15.392Z</time>
      </trkpt>
      <trkpt lat="47.07712" lon="6.75669">
        <ele>1147.0800000349</ele>
        <time>2021-07-03T08:16:15.994Z</time>
      </trkpt>
      <trkpt lat="47.07714" lon="6.75667">
        <ele>1147.4699999588</ele>
        <time>2021-07-03T08:16:23.875Z</time>
      </trkpt>
      <trkpt lat="47.07717" lon="6.75666">
        <ele>1147.6700000059</ele>
        <time>2021-07-03T08:16:28.912Z</time>
      </trkpt>
      <trkpt lat="47.07719" lon="6.75666">
        <ele>1147.8599999599</ele>
        <time>2021-07-03T08:16:33.100Z</time>
      </trkpt>
      <trkpt lat="47.07721" lon="6.75666">
        <ele>1148.0499999989</ele>
        <time>2021-07-03T08:16:37.287Z</time>
      </trkpt>
      <trkpt lat="47.07723" lon="6.75668">
        <ele>1148.2299999816</ele>
        <time>2021-07-03T08:16:41.539Z</time>
      </trkpt>
      <trkpt lat="47.07725" lon="6.75671">
        <ele>1148.4300000109</ele>
        <time>2021-07-03T08:16:46.395Z</time>
      </trkpt>
      <trkpt lat="47.07726" lon="6.75674">
        <ele>1148.6699999511</ele>
        <time>2021-07-03T08:16:51.673Z</time>
      </trkpt>
      <trkpt lat="47.07726" lon="6.75678">
        <ele>1148.94</ele>
        <time>2021-07-03T08:16:57.603Z</time>
      </trkpt>
      <trkpt lat="47.07726" lon="6.75681">
        <ele>1149.1999999931</ele>
        <time>2021-07-03T08:17:03.712Z</time>
      </trkpt>
      <trkpt lat="47.07724" lon="6.75693">
        <ele>1150.11</ele>
        <time>2021-07-03T08:17:23.781Z</time>
      </trkpt>
      <trkpt lat="47.07723" lon="6.75698">
        <ele>1150.53</ele>
        <time>2021-07-03T08:17:33.270Z</time>
      </trkpt>
      <trkpt lat="47.07723" lon="6.75705">
        <ele>1151.12</ele>
        <time>2021-07-03T08:17:46.892Z</time>
      </trkpt>
      <trkpt lat="47.07723" lon="6.75709">
        <ele>1151.6</ele>
        <time>2021-07-03T08:17:55.763Z</time>
      </trkpt>
      <trkpt lat="47.07723" lon="6.75715">
        <ele>1152.1799999516</ele>
        <time>2021-07-03T08:18:09.070Z</time>
      </trkpt>
      <trkpt lat="47.07724" lon="6.75721">
        <ele>1152.85</ele>
        <time>2021-07-03T08:18:22.771Z</time>
      </trkpt>
      <trkpt lat="47.07727" lon="6.7573">
        <ele>1153.91</ele>
        <time>2021-07-03T08:18:44.994Z</time>
      </trkpt>
      <trkpt lat="47.0773" lon="6.75738">
        <ele>1155.0099999649</ele>
        <time>2021-07-03T08:19:05.250Z</time>
      </trkpt>
      <trkpt lat="47.07759" lon="6.75793">
        <ele>1160.26</ele>
        <time>2021-07-03T08:21:01.532Z</time>
      </trkpt>
      <trkpt lat="47.07775" lon="6.75829">
        <ele>1163.57</ele>
        <time>2021-07-03T08:22:15.189Z</time>
      </trkpt>
      <trkpt lat="47.07785" lon="6.75849">
        <ele>1165.83000004</ele>
        <time>2021-07-03T08:23:10.218Z</time>
      </trkpt>
      <trkpt lat="47.07792" lon="6.75861">
        <ele>1166.99</ele>
        <time>2021-07-03T08:23:35.789Z</time>
      </trkpt>
      <trkpt lat="47.078" lon="6.75872">
        <ele>1168.4599999547</ele>
        <time>2021-07-03T08:24:11.483Z</time>
      </trkpt>
      <trkpt lat="47.07809" lon="6.75882">
        <ele>1169.6800000488</ele>
        <time>2021-07-03T08:24:38.386Z</time>
      </trkpt>
      <trkpt lat="47.07814" lon="6.75885">
        <ele>1170.2900000196</ele>
        <time>2021-07-03T08:24:51.957Z</time>
      </trkpt>
      <trkpt lat="47.07819" lon="6.75884">
        <ele>1170.78</ele>
        <time>2021-07-03T08:25:02.733Z</time>
      </trkpt>
      <trkpt lat="47.07823" lon="6.75882">
        <ele>1171.51</ele>
        <time>2021-07-03T08:25:16.494Z</time>
      </trkpt>
      <trkpt lat="47.07826" lon="6.7588">
        <ele>1172.3</ele>
        <time>2021-07-03T08:25:27.224Z</time>
      </trkpt>
      <trkpt lat="47.0783" lon="6.75875">
        <ele>1172.8700000009</ele>
        <time>2021-07-03T08:25:39.801Z</time>
      </trkpt>
      <trkpt lat="47.07832" lon="6.75869">
        <ele>1173.43</ele>
        <time>2021-07-03T08:25:52.691Z</time>
      </trkpt>
      <trkpt lat="47.07833" lon="6.75861">
        <ele>1174.07</ele>
        <time>2021-07-03T08:26:07.024Z</time>
      </trkpt>
      <trkpt lat="47.07836" lon="6.75837">
        <ele>1175.36</ele>
        <time>2021-07-03T08:26:36.981Z</time>
      </trkpt>
      <trkpt lat="47.07836" lon="6.75833">
        <ele>1175.6099999997</ele>
        <time>2021-07-03T08:26:42.518Z</time>
      </trkpt>
      <trkpt lat="47.07842" lon="6.75748">
        <ele>1180.82</ele>
        <time>2021-07-03T08:28:38.464Z</time>
      </trkpt>
      <trkpt lat="47.07844" lon="6.75731">
        <ele>1182.28</ele>
        <time>2021-07-03T08:29:12.252Z</time>
      </trkpt>
      <trkpt lat="47.07846" lon="6.75715">
        <ele>1183.58</ele>
        <time>2021-07-03T08:29:41.525Z</time>
      </trkpt>
      <trkpt lat="47.0785" lon="6.75702">
        <ele>1184.74</ele>
        <time>2021-07-03T08:30:07.830Z</time>
      </trkpt>
      <trkpt lat="47.07855" lon="6.75684">
        <ele>1185.59</ele>
        <time>2021-07-03T08:30:29.382Z</time>
      </trkpt>
      <trkpt lat="47.07856" lon="6.75685">
        <ele>1185.59</ele>
        <time>2021-07-03T08:30:30.403Z</time>
      </trkpt>
      <trkpt lat="47.07855" lon="6.75684">
        <ele>1185.59</ele>
        <time>2021-07-03T08:30:31.425Z</time>
      </trkpt>
      <trkpt lat="47.07856" lon="6.75681">
        <ele>1186.44</ele>
        <time>2021-07-03T08:30:38.832Z</time>
      </trkpt>
      <trkpt lat="47.07864" lon="6.75658">
        <ele>1187.7800000047</ele>
        <time>2021-07-03T08:31:10.177Z</time>
      </trkpt>
      <trkpt lat="47.07869" lon="6.75646">
        <ele>1188.4100000478</ele>
        <time>2021-07-03T08:31:25.950Z</time>
      </trkpt>
      <trkpt lat="47.07872" lon="6.7564">
        <ele>1189.1499999561</ele>
        <time>2021-07-03T08:31:42.459Z</time>
      </trkpt>
      <trkpt lat="47.0788" lon="6.75632">
        <ele>1190.21</ele>
        <time>2021-07-03T08:32:05.883Z</time>
      </trkpt>
      <trkpt lat="47.07923" lon="6.75597">
        <ele>1196.6800000045</ele>
        <time>2021-07-03T08:34:41.865Z</time>
      </trkpt>
      <trkpt lat="47.07934" lon="6.75587">
        <ele>1197.78</ele>
        <time>2021-07-03T08:35:06.654Z</time>
      </trkpt>
      <trkpt lat="47.07957" lon="6.75558">
        <ele>1201.99</ele>
        <time>2021-07-03T08:36:45.383Z</time>
      </trkpt>
      <trkpt lat="47.07964" lon="6.75553">
        <ele>1203</ele>
        <time>2021-07-03T08:37:09.453Z</time>
      </trkpt>
      <trkpt lat="47.07973" lon="6.75549">
        <ele>1204.18</ele>
        <time>2021-07-03T08:37:36.922Z</time>
      </trkpt>
      <trkpt lat="47.07983" lon="6.75543">
        <ele>1205.8299999374</ele>
        <time>2021-07-03T08:38:12.103Z</time>
      </trkpt>
      <trkpt lat="47.07993" lon="6.75536">
        <ele>1207.5700000518</ele>
        <time>2021-07-03T08:38:48.182Z</time>
      </trkpt>
      <trkpt lat="47.08001" lon="6.75528">
        <ele>1209.0900000635</ele>
        <time>2021-07-03T08:39:19.703Z</time>
      </trkpt>
      <trkpt lat="47.08006" lon="6.75519">
        <ele>1210.4499999556</ele>
        <time>2021-07-03T08:39:45.463Z</time>
      </trkpt>
      <trkpt lat="47.08011" lon="6.75507">
        <ele>1211.71</ele>
        <time>2021-07-03T08:40:15.825Z</time>
      </trkpt>
      <trkpt lat="47.08014" lon="6.75497">
        <ele>1212.81</ele>
        <time>2021-07-03T08:40:40.059Z</time>
      </trkpt>
      <trkpt lat="47.08016" lon="6.75485">
        <ele>1213.97</ele>
        <time>2021-07-03T08:41:07.458Z</time>
      </trkpt>
      <trkpt lat="47.08017" lon="6.75468">
        <ele>1215.4000000098</ele>
        <time>2021-07-03T08:41:40.369Z</time>
      </trkpt>
      <trkpt lat="47.0802" lon="6.75457">
        <ele>1216.2900000031</ele>
        <time>2021-07-03T08:42:00.062Z</time>
      </trkpt>
      <trkpt lat="47.08022" lon="6.7545">
        <ele>1216.7299999735</ele>
        <time>2021-07-03T08:42:09.975Z</time>
      </trkpt>
      <trkpt lat="47.08026" lon="6.75445">
        <ele>1217.1599999977</ele>
        <time>2021-07-03T08:42:19.776Z</time>
      </trkpt>
      <trkpt lat="47.08033" lon="6.75442">
        <ele>1217.38</ele>
        <time>2021-07-03T08:42:28.285Z</time>
      </trkpt>
      <trkpt lat="47.08039" lon="6.75442">
        <ele>1217.77</ele>
        <time>2021-07-03T08:42:38.109Z</time>
      </trkpt>
      <trkpt lat="47.08045" lon="6.75445">
        <ele>1218.04</ele>
        <time>2021-07-03T08:42:46.884Z</time>
      </trkpt>
      <trkpt lat="47.08051" lon="6.7545">
        <ele>1218.4499999958</ele>
        <time>2021-07-03T08:42:57.741Z</time>
      </trkpt>
      <trkpt lat="47.0808" lon="6.7548">
        <ele>1219.9300000147</ele>
        <time>2021-07-03T08:43:46.218Z</time>
      </trkpt>
      <trkpt lat="47.08091" lon="6.7549">
        <ele>1220.68</ele>
        <time>2021-07-03T08:44:06.371Z</time>
      </trkpt>
      <trkpt lat="47.08102" lon="6.75496">
        <ele>1221.12</ele>
        <time>2021-07-03T08:44:21.462Z</time>
      </trkpt>
      <trkpt lat="47.08113" lon="6.75498">
        <ele>1221.08</ele>
        <time>2021-07-03T08:44:30.331Z</time>
      </trkpt>
      <trkpt lat="47.0812" lon="6.75498">
        <ele>1221.1</ele>
        <time>2021-07-03T08:44:36.400Z</time>
      </trkpt>
      <trkpt lat="47.08121" lon="6.75498">
        <ele>1221.1</ele>
        <time>2021-07-03T08:44:37.244Z</time>
      </trkpt>
      <trkpt lat="47.0812" lon="6.75498">
        <ele>1221.1</ele>
        <time>2021-07-03T08:44:38.089Z</time>
      </trkpt>
      <trkpt lat="47.08124" lon="6.75498">
        <ele>1221.1199999992</ele>
        <time>2021-07-03T08:44:41.628Z</time>
      </trkpt>
      <trkpt lat="47.08135" lon="6.75496">
        <ele>1221.23</ele>
        <time>2021-07-03T08:44:51.923Z</time>
      </trkpt>
      <trkpt lat="47.08144" lon="6.75492">
        <ele>1221.21</ele>
        <time>2021-07-03T08:44:59.612Z</time>
      </trkpt>
      <trkpt lat="47.08153" lon="6.75487">
        <ele>1221.16</ele>
        <time>2021-07-03T08:45:07.137Z</time>
      </trkpt>
      <trkpt lat="47.08162" lon="6.75479">
        <ele>1221.3999999994</ele>
        <time>2021-07-03T08:45:18.366Z</time>
      </trkpt>
      <trkpt lat="47.08196" lon="6.75453">
        <ele>1224.4000000494</ele>
        <time>2021-07-03T08:46:27.822Z</time>
      </trkpt>
      <trkpt lat="47.08204" lon="6.75447">
        <ele>1225.5799999998</ele>
        <time>2021-07-03T08:46:56.226Z</time>
      </trkpt>
      <trkpt lat="47.08219" lon="6.75439">
        <ele>1227.1000000164</ele>
        <time>2021-07-03T08:47:29.715Z</time>
      </trkpt>
      <trkpt lat="47.08228" lon="6.75435">
        <ele>1227.84</ele>
        <time>2021-07-03T08:47:46.813Z</time>
      </trkpt>
      <trkpt lat="47.08236" lon="6.75433">
        <ele>1228.51</ele>
        <time>2021-07-03T08:48:02.043Z</time>
      </trkpt>
      <trkpt lat="47.08247" lon="6.75431">
        <ele>1229.7399999673</ele>
        <time>2021-07-03T08:48:29.294Z</time>
      </trkpt>
      <trkpt lat="47.08259" lon="6.75432">
        <ele>1230.4899999912</ele>
        <time>2021-07-03T08:48:48.608Z</time>
      </trkpt>
      <trkpt lat="47.08281" lon="6.75436">
        <ele>1232.09</ele>
        <time>2021-07-03T08:49:26.900Z</time>
      </trkpt>
      <trkpt lat="47.08303" lon="6.75441">
        <ele>1232.7799999988</ele>
        <time>2021-07-03T08:49:53.149Z</time>
      </trkpt>
      <trkpt lat="47.08321" lon="6.75446">
        <ele>1232.5900000029</ele>
        <time>2021-07-03T08:49:59.047Z</time>
      </trkpt>
      <trkpt lat="47.08394" lon="6.75463">
        <ele>1231.65</ele>
        <time>2021-07-03T08:50:22.129Z</time>
      </trkpt>
      <trkpt lat="47.08405" lon="6.75467">
        <ele>1231.4000000013</ele>
        <time>2021-07-03T08:50:25.289Z</time>
      </trkpt>
      <trkpt lat="47.08416" lon="6.75471">
        <ele>1231.45</ele>
        <time>2021-07-03T08:50:35.260Z</time>
      </trkpt>
      <trkpt lat="47.08445" lon="6.75486">
        <ele>1230.83</ele>
        <time>2021-07-03T08:50:44.025Z</time>
      </trkpt>
      <trkpt lat="47.08447" lon="6.75488">
        <ele>1230.75</ele>
        <time>2021-07-03T08:50:44.624Z</time>
      </trkpt>
      <trkpt lat="47.08451" lon="6.75491">
        <ele>1231.01</ele>
        <time>2021-07-03T08:50:51.616Z</time>
      </trkpt>
      <trkpt lat="47.08455" lon="6.75496">
        <ele>1231.54</ele>
        <time>2021-07-03T08:51:03.252Z</time>
      </trkpt>
      <trkpt lat="47.08458" lon="6.75501">
        <ele>1231.8099999823</ele>
        <time>2021-07-03T08:51:10.396Z</time>
      </trkpt>
      <trkpt lat="47.08465" lon="6.75513">
        <ele>1232.54</ele>
        <time>2021-07-03T08:51:28.385Z</time>
      </trkpt>
      <trkpt lat="47.08471" lon="6.75525">
        <ele>1233.1799999982</ele>
        <time>2021-07-03T08:51:44.760Z</time>
      </trkpt>
      <trkpt lat="47.08485" lon="6.75544">
        <ele>1234.02</ele>
        <time>2021-07-03T08:52:11.749Z</time>
      </trkpt>
      <trkpt lat="47.08489" lon="6.75549">
        <ele>1234.15</ele>
        <time>2021-07-03T08:52:17.484Z</time>
      </trkpt>
      <trkpt lat="47.08494" lon="6.75556">
        <ele>1234.3099999899</ele>
        <time>2021-07-03T08:52:24.888Z</time>
      </trkpt>
      <trkpt lat="47.08506" lon="6.75572">
        <ele>1235</ele>
        <time>2021-07-03T08:52:47.320Z</time>
      </trkpt>
      <trkpt lat="47.08515" lon="6.75585">
        <ele>1235.54</ele>
        <time>2021-07-03T08:53:04.846Z</time>
      </trkpt>
      <trkpt lat="47.08518" lon="6.75588">
        <ele>1235.91</ele>
        <time>2021-07-03T08:53:12.969Z</time>
      </trkpt>
      <trkpt lat="47.08518" lon="6.75589">
        <ele>1235.91</ele>
        <time>2021-07-03T08:53:13.544Z</time>
      </trkpt>
      <trkpt lat="47.08518" lon="6.75588">
        <ele>1235.91</ele>
        <time>2021-07-03T08:53:14.119Z</time>
      </trkpt>
      <trkpt lat="47.08528" lon="6.75602">
        <ele>1236.2699999971</ele>
        <time>2021-07-03T08:53:29.441Z</time>
      </trkpt>
      <trkpt lat="47.08539" lon="6.75614">
        <ele>1236.84</ele>
        <time>2021-07-03T08:53:48.133Z</time>
      </trkpt>
      <trkpt lat="47.08562" lon="6.7564">
        <ele>1238.3</ele>
        <time>2021-07-03T08:54:31.069Z</time>
      </trkpt>
      <trkpt lat="47.08573" lon="6.7565">
        <ele>1238.6799999976</ele>
        <time>2021-07-03T08:54:46.013Z</time>
      </trkpt>
      <trkpt lat="47.08587" lon="6.75663">
        <ele>1239.1400000172</ele>
        <time>2021-07-03T08:55:04.770Z</time>
      </trkpt>
      <trkpt lat="47.08594" lon="6.75669">
        <ele>1239.42000001</ele>
        <time>2021-07-03T08:55:14.781Z</time>
      </trkpt>
      <trkpt lat="47.08597" lon="6.75672">
        <ele>1239.5199999891</ele>
        <time>2021-07-03T08:55:18.880Z</time>
      </trkpt>
      <trkpt lat="47.08607" lon="6.75679">
        <ele>1239.4099999956</ele>
        <time>2021-07-03T08:55:22.468Z</time>
      </trkpt>
      <trkpt lat="47.08614" lon="6.75684">
        <ele>1239.3100000006</ele>
        <time>2021-07-03T08:55:24.895Z</time>
      </trkpt>
      <trkpt lat="47.08633" lon="6.75697">
        <ele>1238.2900000106</ele>
        <time>2021-07-03T08:55:29.375Z</time>
      </trkpt>
      <trkpt lat="47.08657" lon="6.7571">
        <ele>1236.52</ele>
        <time>2021-07-03T08:55:34.529Z</time>
      </trkpt>
      <trkpt lat="47.08673" lon="6.7572">
        <ele>1235.2899999815</ele>
        <time>2021-07-03T08:55:38.033Z</time>
      </trkpt>
      <trkpt lat="47.08682" lon="6.75726">
        <ele>1234.81</ele>
        <time>2021-07-03T08:55:40.148Z</time>
      </trkpt>
      <trkpt lat="47.08683" lon="6.75728">
        <ele>1234.67</ele>
        <time>2021-07-03T08:55:40.488Z</time>
      </trkpt>
      <trkpt lat="47.08688" lon="6.75734">
        <ele>1234.2300000233</ele>
        <time>2021-07-03T08:55:41.789Z</time>
      </trkpt>
      <trkpt lat="47.08698" lon="6.75749">
        <ele>1233.46</ele>
        <time>2021-07-03T08:55:44.711Z</time>
      </trkpt>
      <trkpt lat="47.08721" lon="6.75788">
        <ele>1231.09</ele>
        <time>2021-07-03T08:55:51.789Z</time>
      </trkpt>
      <trkpt lat="47.08729" lon="6.75799">
        <ele>1230.68</ele>
        <time>2021-07-03T08:55:54.388Z</time>
      </trkpt>
      <trkpt lat="47.08738" lon="6.75808">
        <ele>1230.4699999951</ele>
        <time>2021-07-03T08:55:57.524Z</time>
      </trkpt>
      <trkpt lat="47.08746" lon="6.75815">
        <ele>1230.32</ele>
        <time>2021-07-03T08:56:00.311Z</time>
      </trkpt>
      <trkpt lat="47.08751" lon="6.75819">
        <ele>1230.23</ele>
        <time>2021-07-03T08:56:02.022Z</time>
      </trkpt>
      <trkpt lat="47.08796" lon="6.7585">
        <ele>1228.31</ele>
        <time>2021-07-03T08:56:13.672Z</time>
      </trkpt>
      <trkpt lat="47.08836" lon="6.75878">
        <ele>1226.5999999887</ele>
        <time>2021-07-03T08:56:24.063Z</time>
      </trkpt>
      <trkpt lat="47.08853" lon="6.75889">
        <ele>1225.9999999929</ele>
        <time>2021-07-03T08:56:28.700Z</time>
      </trkpt>
      <trkpt lat="47.08864" lon="6.75895">
        <ele>1225.66</ele>
        <time>2021-07-03T08:56:31.732Z</time>
      </trkpt>
      <trkpt lat="47.0888" lon="6.75902">
        <ele>1225.35</ele>
        <time>2021-07-03T08:56:36.581Z</time>
      </trkpt>
      <trkpt lat="47.08929" lon="6.7592">
        <ele>1226.15</ele>
        <time>2021-07-03T08:57:26.466Z</time>
      </trkpt>
      <trkpt lat="47.08938" lon="6.75922">
        <ele>1226.42</ele>
        <time>2021-07-03T08:57:37.019Z</time>
      </trkpt>
      <trkpt lat="47.08946" lon="6.75923">
        <ele>1226.7000000029</ele>
        <time>2021-07-03T08:57:46.980Z</time>
      </trkpt>
      <trkpt lat="47.08951" lon="6.75923">
        <ele>1226.74</ele>
        <time>2021-07-03T08:57:51.535Z</time>
      </trkpt>
      <trkpt lat="47.08948" lon="6.75968">
        <ele>1229.0000000385</ele>
        <time>2021-07-03T08:58:45.221Z</time>
      </trkpt>
      <trkpt lat="47.08948" lon="6.75977">
        <ele>1229.59</ele>
        <time>2021-07-03T08:58:58.206Z</time>
      </trkpt>
      <trkpt lat="47.08987" lon="6.76066">
        <ele>1234.5100000249</ele>
        <time>2021-07-03T09:00:59.068Z</time>
      </trkpt>
      <trkpt lat="47.08992" lon="6.76083">
        <ele>1235.7799999786</ele>
        <time>2021-07-03T09:01:26.950Z</time>
      </trkpt>
      <trkpt lat="47.08999" lon="6.76103">
        <ele>1236.9299999843</ele>
        <time>2021-07-03T09:01:54.006Z</time>
      </trkpt>
      <trkpt lat="47.09009" lon="6.76127">
        <ele>1238.0699999888</ele>
        <time>2021-07-03T09:02:24.169Z</time>
      </trkpt>
      <trkpt lat="47.09015" lon="6.76158">
        <ele>1239.3799999902</ele>
        <time>2021-07-03T09:02:58.763Z</time>
      </trkpt>
      <trkpt lat="47.09044" lon="6.76246">
        <ele>1242.0200000037</ele>
        <time>2021-07-03T09:04:27.033Z</time>
      </trkpt>
      <trkpt lat="47.09055" lon="6.76273">
        <ele>1242.38</ele>
        <time>2021-07-03T09:04:48.412Z</time>
      </trkpt>
      <trkpt lat="47.09061" lon="6.7629">
        <ele>1242.89</ele>
        <time>2021-07-03T09:05:05.567Z</time>
      </trkpt>
      <trkpt lat="47.09065" lon="6.76308">
        <ele>1243.11</ele>
        <time>2021-07-03T09:05:18.468Z</time>
      </trkpt>
      <trkpt lat="47.09069" lon="6.76335">
        <ele>1243.3100000571</ele>
        <time>2021-07-03T09:05:36.066Z</time>
      </trkpt>
      <trkpt lat="47.0907" lon="6.76346">
        <ele>1244.51</ele>
        <time>2021-07-03T09:06:00.673Z</time>
      </trkpt>
      <trkpt lat="47.09071" lon="6.76369">
        <ele>1246.0600000427</ele>
        <time>2021-07-03T09:06:34.723Z</time>
      </trkpt>
      <trkpt lat="47.09074" lon="6.76387">
        <ele>1247.57</ele>
        <time>2021-07-03T09:07:08.999Z</time>
      </trkpt>
      <trkpt lat="47.0908" lon="6.76406">
        <ele>1248.7000000174</ele>
        <time>2021-07-03T09:07:35.042Z</time>
      </trkpt>
      <trkpt lat="47.09088" lon="6.76421">
        <ele>1249.4999999944</ele>
        <time>2021-07-03T09:07:55.780Z</time>
      </trkpt>
      <trkpt lat="47.09101" lon="6.76442">
        <ele>1249.9</ele>
        <time>2021-07-03T09:08:15.914Z</time>
      </trkpt>
      <trkpt lat="47.09104" lon="6.76451">
        <ele>1249.9</ele>
        <time>2021-07-03T09:08:21.674Z</time>
      </trkpt>
      <trkpt lat="47.09115" lon="6.76476">
        <ele>1249.9000000049</ele>
        <time>2021-07-03T09:08:38.786Z</time>
      </trkpt>
      <trkpt lat="47.09121" lon="6.76494">
        <ele>1250.699999979</ele>
        <time>2021-07-03T09:09:00.138Z</time>
      </trkpt>
      <trkpt lat="47.09129" lon="6.76515">
        <ele>1250.7</ele>
        <time>2021-07-03T09:09:13.972Z</time>
      </trkpt>
      <trkpt lat="47.09133" lon="6.76527">
        <ele>1250.7</ele>
        <time>2021-07-03T09:09:21.652Z</time>
      </trkpt>
      <trkpt lat="47.09136" lon="6.76542">
        <ele>1251.1</ele>
        <time>2021-07-03T09:09:35.357Z</time>
      </trkpt>
      <trkpt lat="47.09148" lon="6.7657">
        <ele>1250.67</ele>
        <time>2021-07-03T09:09:41.860Z</time>
      </trkpt>
      <trkpt lat="47.09156" lon="6.76588">
        <ele>1250.7199999992</ele>
        <time>2021-07-03T09:09:54.616Z</time>
      </trkpt>
      <trkpt lat="47.09176" lon="6.76638">
        <ele>1252.2699999993</ele>
        <time>2021-07-03T09:10:46.671Z</time>
      </trkpt>
      <trkpt lat="47.09183" lon="6.76653">
        <ele>1252.17</ele>
        <time>2021-07-03T09:10:50.783Z</time>
      </trkpt>
      <trkpt lat="47.09219" lon="6.76763">
        <ele>1253.56</ele>
        <time>2021-07-03T09:12:13.638Z</time>
      </trkpt>
      <trkpt lat="47.09226" lon="6.76777">
        <ele>1253.55</ele>
        <time>2021-07-03T09:12:23.495Z</time>
      </trkpt>
      <trkpt lat="47.09228" lon="6.76781">
        <ele>1253.55</ele>
        <time>2021-07-03T09:12:26.348Z</time>
      </trkpt>
      <trkpt lat="47.0923" lon="6.7679">
        <ele>1253.8199999798</ele>
        <time>2021-07-03T09:12:35.179Z</time>
      </trkpt>
      <trkpt lat="47.09233" lon="6.76801">
        <ele>1253.82</ele>
        <time>2021-07-03T09:12:41.990Z</time>
      </trkpt>
      <trkpt lat="47.09235" lon="6.76809">
        <ele>1253.82</ele>
        <time>2021-07-03T09:12:46.889Z</time>
      </trkpt>
      <trkpt lat="47.09239" lon="6.76817">
        <ele>1254.09</ele>
        <time>2021-07-03T09:12:55.889Z</time>
      </trkpt>
      <trkpt lat="47.09243" lon="6.76824">
        <ele>1254.09</ele>
        <time>2021-07-03T09:13:01.142Z</time>
      </trkpt>
      <trkpt lat="47.09245" lon="6.76832">
        <ele>1254.619999978</ele>
        <time>2021-07-03T09:13:12.891Z</time>
      </trkpt>
      <trkpt lat="47.09249" lon="6.76845">
        <ele>1254.62</ele>
        <time>2021-07-03T09:13:21.092Z</time>
      </trkpt>
      <trkpt lat="47.09253" lon="6.7686">
        <ele>1255.15</ele>
        <time>2021-07-03T09:13:37.108Z</time>
      </trkpt>
      <trkpt lat="47.09259" lon="6.7688">
        <ele>1256.22</ele>
        <time>2021-07-03T09:14:02.759Z</time>
      </trkpt>
      <trkpt lat="47.09269" lon="6.7691">
        <ele>1256.75</ele>
        <time>2021-07-03T09:14:27.172Z</time>
      </trkpt>
      <trkpt lat="47.09274" lon="6.76925">
        <ele>1257.2899999854</ele>
        <time>2021-07-03T09:14:43.687Z</time>
      </trkpt>
      <trkpt lat="47.0928" lon="6.76945">
        <ele>1258.35</ele>
        <time>2021-07-03T09:15:09.207Z</time>
      </trkpt>
      <trkpt lat="47.09282" lon="6.76953">
        <ele>1258.35</ele>
        <time>2021-07-03T09:15:14.106Z</time>
      </trkpt>
      <trkpt lat="47.09288" lon="6.76972">
        <ele>1258.619999996</ele>
        <time>2021-07-03T09:15:28.672Z</time>
      </trkpt>
      <trkpt lat="47.09296" lon="6.76997">
        <ele>1259.95</ele>
        <time>2021-07-03T09:16:00.799Z</time>
      </trkpt>
      <trkpt lat="47.093" lon="6.77009">
        <ele>1260.749999972</ele>
        <time>2021-07-03T09:16:18.673Z</time>
      </trkpt>
      <trkpt lat="47.09305" lon="6.77022">
        <ele>1261.02</ele>
        <time>2021-07-03T09:16:30.015Z</time>
      </trkpt>
      <trkpt lat="47.09308" lon="6.77027">
        <ele>1261.02</ele>
        <time>2021-07-03T09:16:33.846Z</time>
      </trkpt>
      <trkpt lat="47.09311" lon="6.77032">
        <ele>1261.02</ele>
        <time>2021-07-03T09:16:37.677Z</time>
      </trkpt>
      <trkpt lat="47.09318" lon="6.77047">
        <ele>1261.29</ele>
        <time>2021-07-03T09:16:50.741Z</time>
      </trkpt>
      <trkpt lat="47.09322" lon="6.77053">
        <ele>1261.29</ele>
        <time>2021-07-03T09:16:55.568Z</time>
      </trkpt>
      <trkpt lat="47.09325" lon="6.77061">
        <ele>1261.82</ele>
        <time>2021-07-03T09:17:07.504Z</time>
      </trkpt>
      <trkpt lat="47.0933" lon="6.77071">
        <ele>1262.0899999839</ele>
        <time>2021-07-03T09:17:17.588Z</time>
      </trkpt>
      <trkpt lat="47.09336" lon="6.7708">
        <ele>1262.0900000002</ele>
        <time>2021-07-03T09:17:24.829Z</time>
      </trkpt>
      <trkpt lat="47.0934" lon="6.77086">
        <ele>1262.35</ele>
        <time>2021-07-03T09:17:33.027Z</time>
      </trkpt>
      <trkpt lat="47.09342" lon="6.77091">
        <ele>1262.09</ele>
        <time>2021-07-03T09:17:33.760Z</time>
      </trkpt>
      <trkpt lat="47.09348" lon="6.77101">
        <ele>1262.349999997</ele>
        <time>2021-07-03T09:17:44.149Z</time>
      </trkpt>
      <trkpt lat="47.09355" lon="6.77115">
        <ele>1262.77</ele>
        <time>2021-07-03T09:17:58.948Z</time>
      </trkpt>
      <trkpt lat="47.0936" lon="6.77124">
        <ele>1262.9100000034</ele>
        <time>2021-07-03T09:18:06.918Z</time>
      </trkpt>
      <trkpt lat="47.09364" lon="6.77131">
        <ele>1263.0100000092</ele>
        <time>2021-07-03T09:18:13.078Z</time>
      </trkpt>
      <trkpt lat="47.09365" lon="6.77133">
        <ele>1263.08</ele>
        <time>2021-07-03T09:18:15.377Z</time>
      </trkpt>
      <trkpt lat="47.09366" lon="6.77133">
        <ele>1263.08</ele>
        <time>2021-07-03T09:18:16.222Z</time>
      </trkpt>
      <trkpt lat="47.09365" lon="6.77133">
        <ele>1263.08</ele>
        <time>2021-07-03T09:18:17.066Z</time>
      </trkpt>
      <trkpt lat="47.09367" lon="6.77138">
        <ele>1263.15</ele>
        <time>2021-07-03T09:18:21.046Z</time>
      </trkpt>
      <trkpt lat="47.09369" lon="6.77164">
        <ele>1263.95</ele>
        <time>2021-07-03T09:18:46.496Z</time>
      </trkpt>
      <trkpt lat="47.09371" lon="6.77174">
        <ele>1264.22</ele>
        <time>2021-07-03T09:18:55.693Z</time>
      </trkpt>
      <trkpt lat="47.09373" lon="6.7718">
        <ele>1264.22</ele>
        <time>2021-07-03T09:18:59.533Z</time>
      </trkpt>
      <trkpt lat="47.09375" lon="6.77182">
        <ele>1263.95</ele>
        <time>2021-07-03T09:19:00.021Z</time>
      </trkpt>
      <trkpt lat="47.09378" lon="6.77186">
        <ele>1263.95</ele>
        <time>2021-07-03T09:19:03.442Z</time>
      </trkpt>
      <trkpt lat="47.09385" lon="6.77193">
        <ele>1263.95</ele>
        <time>2021-07-03T09:19:10.592Z</time>
      </trkpt>
      <trkpt lat="47.09389" lon="6.77199">
        <ele>1263.95</ele>
        <time>2021-07-03T09:19:15.419Z</time>
      </trkpt>
      <trkpt lat="47.09395" lon="6.77204">
        <ele>1263.15</ele>
        <time>2021-07-03T09:19:16.809Z</time>
      </trkpt>
      <trkpt lat="47.09402" lon="6.7721">
        <ele>1263.42</ele>
        <time>2021-07-03T09:19:26.657Z</time>
      </trkpt>
      <trkpt lat="47.09407" lon="6.77218">
        <ele>1262.89</ele>
        <time>2021-07-03T09:19:28.147Z</time>
      </trkpt>
      <trkpt lat="47.09411" lon="6.77227">
        <ele>1263.1499999961</ele>
        <time>2021-07-03T09:19:37.306Z</time>
      </trkpt>
      <trkpt lat="47.09417" lon="6.77239">
        <ele>1263.3899999959</ele>
        <time>2021-07-03T09:19:48.235Z</time>
      </trkpt>
      <trkpt lat="47.0942" lon="6.77257">
        <ele>1263</ele>
        <time>2021-07-03T09:19:51.429Z</time>
      </trkpt>
      <trkpt lat="47.09422" lon="6.77272">
        <ele>1263</ele>
        <time>2021-07-03T09:20:00.216Z</time>
      </trkpt>
      <trkpt lat="47.09423" lon="6.77282">
        <ele>1262.87</ele>
        <time>2021-07-03T09:20:02.207Z</time>
      </trkpt>
      <trkpt lat="47.09425" lon="6.77293">
        <ele>1262.87</ele>
        <time>2021-07-03T09:20:08.752Z</time>
      </trkpt>
      <trkpt lat="47.09428" lon="6.77301">
        <ele>1263.2499999982</ele>
        <time>2021-07-03T09:20:18.653Z</time>
      </trkpt>
      <trkpt lat="47.09434" lon="6.7731">
        <ele>1263.5</ele>
        <time>2021-07-03T09:20:28.531Z</time>
      </trkpt>
      <trkpt lat="47.09442" lon="6.77317">
        <ele>1263.76</ele>
        <time>2021-07-03T09:20:39.095Z</time>
      </trkpt>
      <trkpt lat="47.09452" lon="6.77323">
        <ele>1264.2600000077</ele>
        <time>2021-07-03T09:20:54.665Z</time>
      </trkpt>
      <trkpt lat="47.09461" lon="6.77326">
        <ele>1264.8900000034</ele>
        <time>2021-07-03T09:21:10.142Z</time>
      </trkpt>
      <trkpt lat="47.09466" lon="6.7733">
        <ele>1265.15</ele>
        <time>2021-07-03T09:21:18.316Z</time>
      </trkpt>
      <trkpt lat="47.09472" lon="6.77336">
        <ele>1265.15</ele>
        <time>2021-07-03T09:21:24.445Z</time>
      </trkpt>
      <trkpt lat="47.09484" lon="6.77358">
        <ele>1265.92</ele>
        <time>2021-07-03T09:21:50.064Z</time>
      </trkpt>
      <trkpt lat="47.09495" lon="6.77372">
        <ele>1266.92</ele>
        <time>2021-07-03T09:22:14.554Z</time>
      </trkpt>
      <trkpt lat="47.09502" lon="6.77381">
        <ele>1267.2600000043</ele>
        <time>2021-07-03T09:22:26.362Z</time>
      </trkpt>
      <trkpt lat="47.09503" lon="6.77387">
        <ele>1267.32</ele>
        <time>2021-07-03T09:22:30.446Z</time>
      </trkpt>
      <trkpt lat="47.09509" lon="6.77399">
        <ele>1267.8099999981</ele>
        <time>2021-07-03T09:22:45.250Z</time>
      </trkpt>
      <trkpt lat="47.09519" lon="6.77409">
        <ele>1268.16</ele>
        <time>2021-07-03T09:22:59.147Z</time>
      </trkpt>
      <trkpt lat="47.09521" lon="6.77413">
        <ele>1268.16</ele>
        <time>2021-07-03T09:23:02.000Z</time>
      </trkpt>
      <trkpt lat="47.09523" lon="6.77419">
        <ele>1268.34</ele>
        <time>2021-07-03T09:23:08.024Z</time>
      </trkpt>
      <trkpt lat="47.09528" lon="6.7743">
        <ele>1268.34</ele>
        <time>2021-07-03T09:23:15.627Z</time>
      </trkpt>
      <trkpt lat="47.09533" lon="6.77438">
        <ele>1268.34</ele>
        <time>2021-07-03T09:23:21.869Z</time>
      </trkpt>
      <trkpt lat="47.0954" lon="6.77453">
        <ele>1268.3199999957</ele>
        <time>2021-07-03T09:23:32.070Z</time>
      </trkpt>
      <trkpt lat="47.09544" lon="6.7746">
        <ele>1268.21</ele>
        <time>2021-07-03T09:23:33.897Z</time>
      </trkpt>
      <trkpt lat="47.09546" lon="6.77466">
        <ele>1268.3</ele>
        <time>2021-07-03T09:23:38.587Z</time>
      </trkpt>
      <trkpt lat="47.09548" lon="6.77473">
        <ele>1268.2000000074</ele>
        <time>2021-07-03T09:23:40.075Z</time>
      </trkpt>
      <trkpt lat="47.09556" lon="6.77494">
        <ele>1267.74</ele>
        <time>2021-07-03T09:23:44.349Z</time>
      </trkpt>
      <trkpt lat="47.0956" lon="6.77503">
        <ele>1267.74</ele>
        <time>2021-07-03T09:23:50.527Z</time>
      </trkpt>
      <trkpt lat="47.09562" lon="6.7752">
        <ele>1267.74</ele>
        <time>2021-07-03T09:24:00.444Z</time>
      </trkpt>
      <trkpt lat="47.09568" lon="6.77544">
        <ele>1266.9399999797</ele>
        <time>2021-07-03T09:24:04.254Z</time>
      </trkpt>
      <trkpt lat="47.09573" lon="6.77556">
        <ele>1266.46</ele>
        <time>2021-07-03T09:24:06.276Z</time>
      </trkpt>
      <trkpt lat="47.0958" lon="6.77576">
        <ele>1265.6999999858</ele>
        <time>2021-07-03T09:24:09.521Z</time>
      </trkpt>
      <trkpt lat="47.09587" lon="6.77594">
        <ele>1265.0300000024</ele>
        <time>2021-07-03T09:24:12.569Z</time>
      </trkpt>
      <trkpt lat="47.09598" lon="6.77615">
        <ele>1264.47</ele>
        <time>2021-07-03T09:24:17.130Z</time>
      </trkpt>
      <trkpt lat="47.09619" lon="6.7765">
        <ele>1262.78</ele>
        <time>2021-07-03T09:24:23.659Z</time>
      </trkpt>
      <trkpt lat="47.09623" lon="6.77656">
        <ele>1262.75</ele>
        <time>2021-07-03T09:24:28.126Z</time>
      </trkpt>
      <trkpt lat="47.09638" lon="6.7767">
        <ele>1260.8099999964</ele>
        <time>2021-07-03T09:24:31.707Z</time>
      </trkpt>
      <trkpt lat="47.09641" lon="6.77675">
        <ele>1260.21</ele>
        <time>2021-07-03T09:24:32.622Z</time>
      </trkpt>
      <trkpt lat="47.09643" lon="6.7768">
        <ele>1260.0000000066</ele>
        <time>2021-07-03T09:24:33.433Z</time>
      </trkpt>
      <trkpt lat="47.09646" lon="6.77691">
        <ele>1259.38</ele>
        <time>2021-07-03T09:24:35.059Z</time>
      </trkpt>
      <trkpt lat="47.09655" lon="6.77705">
        <ele>1258.2000000106</ele>
        <time>2021-07-03T09:24:37.700Z</time>
      </trkpt>
      <trkpt lat="47.09665" lon="6.77718">
        <ele>1257.19</ele>
        <time>2021-07-03T09:24:40.391Z</time>
      </trkpt>
      <trkpt lat="47.09666" lon="6.77718">
        <ele>1256.9800000564</ele>
        <time>2021-07-03T09:24:40.592Z</time>
      </trkpt>
      <trkpt lat="47.09678" lon="6.77734">
        <ele>1256.0499999839</ele>
        <time>2021-07-03T09:24:43.810Z</time>
      </trkpt>
      <trkpt lat="47.09683" lon="6.7774">
        <ele>1255.5099999999</ele>
        <time>2021-07-03T09:24:45.111Z</time>
      </trkpt>
      <trkpt lat="47.09688" lon="6.77743">
        <ele>1255.3399999547</ele>
        <time>2021-07-03T09:24:46.470Z</time>
      </trkpt>
      <trkpt lat="47.09691" lon="6.77744">
        <ele>1254.9200000216</ele>
        <time>2021-07-03T09:24:47.090Z</time>
      </trkpt>
      <trkpt lat="47.09696" lon="6.77749">
        <ele>1254.4699999816</ele>
        <time>2021-07-03T09:24:48.309Z</time>
      </trkpt>
      <trkpt lat="47.09701" lon="6.77754">
        <ele>1254.1699999954</ele>
        <time>2021-07-03T09:24:49.591Z</time>
      </trkpt>
      <trkpt lat="47.09705" lon="6.77757">
        <ele>1253.9800000005</ele>
        <time>2021-07-03T09:24:50.608Z</time>
      </trkpt>
      <trkpt lat="47.0971" lon="6.77759">
        <ele>1253.69</ele>
        <time>2021-07-03T09:24:51.649Z</time>
      </trkpt>
      <trkpt lat="47.09715" lon="6.77763">
        <ele>1253.09</ele>
        <time>2021-07-03T09:24:52.796Z</time>
      </trkpt>
      <trkpt lat="47.09719" lon="6.77768">
        <ele>1252.76</ele>
        <time>2021-07-03T09:24:53.795Z</time>
      </trkpt>
      <trkpt lat="47.09721" lon="6.77769">
        <ele>1252.6300000042</ele>
        <time>2021-07-03T09:24:54.201Z</time>
      </trkpt>
      <trkpt lat="47.09723" lon="6.7777">
        <ele>1252.5200000186</ele>
        <time>2021-07-03T09:24:54.639Z</time>
      </trkpt>
      <trkpt lat="47.09726" lon="6.7777">
        <ele>1252.32</ele>
        <time>2021-07-03T09:24:55.193Z</time>
      </trkpt>
      <trkpt lat="47.0973" lon="6.7777">
        <ele>1252.01</ele>
        <time>2021-07-03T09:24:55.999Z</time>
      </trkpt>
      <trkpt lat="47.09731" lon="6.77773">
        <ele>1252.01</ele>
        <time>2021-07-03T09:24:57.919Z</time>
      </trkpt>
      <trkpt lat="47.09736" lon="6.77788">
        <ele>1251.6899999979</ele>
        <time>2021-07-03T09:25:00.883Z</time>
      </trkpt>
      <trkpt lat="47.09741" lon="6.77794">
        <ele>1251.1500000362</ele>
        <time>2021-07-03T09:25:02.184Z</time>
      </trkpt>
      <trkpt lat="47.09745" lon="6.77802">
        <ele>1250.3900000121</ele>
        <time>2021-07-03T09:25:03.545Z</time>
      </trkpt>
      <trkpt lat="47.09751" lon="6.7781">
        <ele>1249.6</ele>
        <time>2021-07-03T09:25:05.178Z</time>
      </trkpt>
      <trkpt lat="47.09758" lon="6.77817">
        <ele>1248.7100000353</ele>
        <time>2021-07-03T09:25:06.884Z</time>
      </trkpt>
      <trkpt lat="47.09767" lon="6.77827">
        <ele>1247.86</ele>
        <time>2021-07-03T09:25:09.158Z</time>
      </trkpt>
      <trkpt lat="47.0978" lon="6.77847">
        <ele>1246.9</ele>
        <time>2021-07-03T09:25:13.101Z</time>
      </trkpt>
      <trkpt lat="47.09793" lon="6.77863">
        <ele>1245.82</ele>
        <time>2021-07-03T09:25:16.304Z</time>
      </trkpt>
      <trkpt lat="47.09816" lon="6.77891">
        <ele>1243.3000000025</ele>
        <time>2021-07-03T09:25:22.323Z</time>
      </trkpt>
      <trkpt lat="47.09839" lon="6.7792">
        <ele>1242.06</ele>
        <time>2021-07-03T09:25:29.275Z</time>
      </trkpt>
      <trkpt lat="47.0985" lon="6.77933">
        <ele>1241.93</ele>
        <time>2021-07-03T09:25:33.892Z</time>
      </trkpt>
      <trkpt lat="47.09894" lon="6.77982">
        <ele>1240.76</ele>
        <time>2021-07-03T09:25:49.445Z</time>
      </trkpt>
      <trkpt lat="47.0992" lon="6.78012">
        <ele>1240.42</ele>
        <time>2021-07-03T09:26:00.102Z</time>
      </trkpt>
      <trkpt lat="47.09945" lon="6.78047">
        <ele>1240.78</ele>
        <time>2021-07-03T09:26:32.339Z</time>
      </trkpt>
      <trkpt lat="47.09949" lon="6.7805">
        <ele>1240.78</ele>
        <time>2021-07-03T09:26:36.131Z</time>
      </trkpt>
      <trkpt lat="47.09954" lon="6.78058">
        <ele>1240.7800000105</ele>
        <time>2021-07-03T09:26:42.374Z</time>
      </trkpt>
      <trkpt lat="47.0996" lon="6.78063">
        <ele>1240.9499999999</ele>
        <time>2021-07-03T09:26:49.896Z</time>
      </trkpt>
      <trkpt lat="47.09965" lon="6.7807">
        <ele>1240.95</ele>
        <time>2021-07-03T09:26:55.728Z</time>
      </trkpt>
      <trkpt lat="47.0997" lon="6.7808">
        <ele>1240.6000000007</ele>
        <time>2021-07-03T09:26:57.656Z</time>
      </trkpt>
      <trkpt lat="47.09976" lon="6.7809">
        <ele>1240.2500000124</ele>
        <time>2021-07-03T09:26:59.784Z</time>
      </trkpt>
      <trkpt lat="47.09986" lon="6.78103">
        <ele>1239.02</ele>
        <time>2021-07-03T09:27:02.474Z</time>
      </trkpt>
      <trkpt lat="47.0999" lon="6.78108">
        <ele>1239.02</ele>
        <time>2021-07-03T09:27:06.909Z</time>
      </trkpt>
      <trkpt lat="47.09982" lon="6.78111">
        <ele>1239.7499999987</ele>
        <time>2021-07-03T09:27:23.199Z</time>
      </trkpt>
      <trkpt lat="47.09974" lon="6.78112">
        <ele>1240.11</ele>
        <time>2021-07-03T09:27:34.665Z</time>
      </trkpt>
      <trkpt lat="47.09966" lon="6.78115">
        <ele>1240.68000001</ele>
        <time>2021-07-03T09:27:48.592Z</time>
      </trkpt>
      <trkpt lat="47.0996" lon="6.78118">
        <ele>1240.9099999991</ele>
        <time>2021-07-03T09:27:56.608Z</time>
      </trkpt>
      <trkpt lat="47.09952" lon="6.78126">
        <ele>1241.0399999902</ele>
        <time>2021-07-03T09:28:05.925Z</time>
      </trkpt>
      <trkpt lat="47.09947" lon="6.7813">
        <ele>1240.81</ele>
        <time>2021-07-03T09:28:07.238Z</time>
      </trkpt>
      <trkpt lat="47.0994" lon="6.78138">
        <ele>1240.56</ele>
        <time>2021-07-03T09:28:09.549Z</time>
      </trkpt>
      <trkpt lat="47.09932" lon="6.78145">
        <ele>1239.76</ele>
        <time>2021-07-03T09:28:11.425Z</time>
      </trkpt>
      <trkpt lat="47.09928" lon="6.7815">
        <ele>1239.7599999607</ele>
        <time>2021-07-03T09:28:15.859Z</time>
      </trkpt>
      <trkpt lat="47.09926" lon="6.78152">
        <ele>1239.36</ele>
        <time>2021-07-03T09:28:16.347Z</time>
      </trkpt>
      <trkpt lat="47.09924" lon="6.78162">
        <ele>1239.36</ele>
        <time>2021-07-03T09:28:22.338Z</time>
      </trkpt>
      <trkpt lat="47.0992" lon="6.78171">
        <ele>1238.96</ele>
        <time>2021-07-03T09:28:23.823Z</time>
      </trkpt>
      <trkpt lat="47.09915" lon="6.78178">
        <ele>1238.96</ele>
        <time>2021-07-03T09:28:29.655Z</time>
      </trkpt>
      <trkpt lat="47.09907" lon="6.78186">
        <ele>1239.36</ele>
        <time>2021-07-03T09:28:42.805Z</time>
      </trkpt>
      <trkpt lat="47.0988" lon="6.78205">
        <ele>1239.7599999994</ele>
        <time>2021-07-03T09:29:11.608Z</time>
      </trkpt>
      <trkpt lat="47.09853" lon="6.78229">
        <ele>1240.5600000065</ele>
        <time>2021-07-03T09:29:46.312Z</time>
      </trkpt>
      <trkpt lat="47.09834" lon="6.78244">
        <ele>1240.96</ele>
        <time>2021-07-03T09:30:08.251Z</time>
      </trkpt>
      <trkpt lat="47.09823" lon="6.7825">
        <ele>1241.63</ele>
        <time>2021-07-03T09:30:26.420Z</time>
      </trkpt>
      <trkpt lat="47.09824" lon="6.78251">
        <ele>1241.63</ele>
        <time>2021-07-03T09:30:27.441Z</time>
      </trkpt>
      <trkpt lat="47.09823" lon="6.7825">
        <ele>1241.63</ele>
        <time>2021-07-03T09:30:28.463Z</time>
      </trkpt>
      <trkpt lat="47.09813" lon="6.78257">
        <ele>1242.31</ele>
        <time>2021-07-03T09:30:46.136Z</time>
      </trkpt>
      <trkpt lat="47.09798" lon="6.7827">
        <ele>1243.1600000078</ele>
        <time>2021-07-03T09:31:11.649Z</time>
      </trkpt>
      <trkpt lat="47.0979" lon="6.78276">
        <ele>1243.5799999811</ele>
        <time>2021-07-03T09:31:24.634Z</time>
      </trkpt>
      <trkpt lat="47.09782" lon="6.78284">
        <ele>1244.45</ele>
        <time>2021-07-03T09:31:43.979Z</time>
      </trkpt>
      <trkpt lat="47.09776" lon="6.78291">
        <ele>1245.21</ele>
        <time>2021-07-03T09:32:00.671Z</time>
      </trkpt>
      <trkpt lat="47.09762" lon="6.78299">
        <ele>1246.64</ele>
        <time>2021-07-03T09:32:32.180Z</time>
      </trkpt>
      <trkpt lat="47.09751" lon="6.78306">
        <ele>1247.5600000032</ele>
        <time>2021-07-03T09:32:53.639Z</time>
      </trkpt>
      <trkpt lat="47.09748" lon="6.78307">
        <ele>1247.599999997</ele>
        <time>2021-07-03T09:32:56.587Z</time>
      </trkpt>
      <trkpt lat="47.09745" lon="6.78311">
        <ele>1247.57</ele>
        <time>2021-07-03T09:32:57.945Z</time>
      </trkpt>
      <trkpt lat="47.09741" lon="6.78318">
        <ele>1247.6</ele>
        <time>2021-07-03T09:33:03.441Z</time>
      </trkpt>
      <trkpt lat="47.09736" lon="6.7833">
        <ele>1247.4600000057</ele>
        <time>2021-07-03T09:33:06.361Z</time>
      </trkpt>
      <trkpt lat="47.09728" lon="6.78351">
        <ele>1246.479999991</ele>
        <time>2021-07-03T09:33:09.550Z</time>
      </trkpt>
      <trkpt lat="47.09725" lon="6.78361">
        <ele>1246.0800000267</ele>
        <time>2021-07-03T09:33:11.072Z</time>
      </trkpt>
      <trkpt lat="47.09719" lon="6.78377">
        <ele>1246.04</ele>
        <time>2021-07-03T09:33:21.079Z</time>
      </trkpt>
      <trkpt lat="47.09717" lon="6.78384">
        <ele>1246</ele>
        <time>2021-07-03T09:33:22.803Z</time>
      </trkpt>
      <trkpt lat="47.09715" lon="6.78391">
        <ele>1245.909999982</ele>
        <time>2021-07-03T09:33:24.325Z</time>
      </trkpt>
      <trkpt lat="47.09714" lon="6.78394">
        <ele>1245.8100000109</ele>
        <time>2021-07-03T09:33:24.832Z</time>
      </trkpt>
      <trkpt lat="47.09716" lon="6.78399">
        <ele>1245.5900000093</ele>
        <time>2021-07-03T09:33:25.626Z</time>
      </trkpt>
      <trkpt lat="47.09721" lon="6.7841">
        <ele>1245.2000000057</ele>
        <time>2021-07-03T09:33:27.646Z</time>
      </trkpt>
      <trkpt lat="47.09712" lon="6.78437">
        <ele>1243.37</ele>
        <time>2021-07-03T09:33:31.769Z</time>
      </trkpt>
      <trkpt lat="47.09708" lon="6.78448">
        <ele>1242.56</ele>
        <time>2021-07-03T09:33:33.480Z</time>
      </trkpt>
      <trkpt lat="47.09706" lon="6.78458">
        <ele>1241.82</ele>
        <time>2021-07-03T09:33:34.910Z</time>
      </trkpt>
      <trkpt lat="47.09704" lon="6.7847">
        <ele>1240.9</ele>
        <time>2021-07-03T09:33:36.604Z</time>
      </trkpt>
      <trkpt lat="47.09706" lon="6.78487">
        <ele>1239.98</ele>
        <time>2021-07-03T09:33:38.971Z</time>
      </trkpt>
      <trkpt lat="47.0971" lon="6.78505">
        <ele>1239.0100000149</ele>
        <time>2021-07-03T09:33:41.568Z</time>
      </trkpt>
      <trkpt lat="47.09718" lon="6.78528">
        <ele>1237.22</ele>
        <time>2021-07-03T09:33:45.111Z</time>
      </trkpt>
      <trkpt lat="47.09721" lon="6.78542">
        <ele>1236.64</ele>
        <time>2021-07-03T09:33:47.084Z</time>
      </trkpt>
      <trkpt lat="47.09722" lon="6.78542">
        <ele>1236.64</ele>
        <time>2021-07-03T09:33:47.928Z</time>
      </trkpt>
      <trkpt lat="47.09721" lon="6.78542">
        <ele>1236.64</ele>
        <time>2021-07-03T09:33:48.773Z</time>
      </trkpt>
      <trkpt lat="47.09722" lon="6.78546">
        <ele>1236.06</ele>
        <time>2021-07-03T09:33:49.357Z</time>
      </trkpt>
      <trkpt lat="47.09725" lon="6.78558">
        <ele>1235.42</ele>
        <time>2021-07-03T09:33:51.111Z</time>
      </trkpt>
      <trkpt lat="47.09731" lon="6.78582">
        <ele>1234.13</ele>
        <time>2021-07-03T09:33:54.618Z</time>
      </trkpt>
      <trkpt lat="47.09736" lon="6.78602">
        <ele>1232.9499999951</ele>
        <time>2021-07-03T09:33:57.540Z</time>
      </trkpt>
      <trkpt lat="47.09738" lon="6.78621">
        <ele>1232.3999999992</ele>
        <time>2021-07-03T09:34:00.511Z</time>
      </trkpt>
      <trkpt lat="47.0974" lon="6.78632">
        <ele>1232.16</ele>
        <time>2021-07-03T09:34:02.472Z</time>
      </trkpt>
      <trkpt lat="47.09741" lon="6.78639">
        <ele>1231.5900000054</ele>
        <time>2021-07-03T09:34:03.453Z</time>
      </trkpt>
      <trkpt lat="47.09742" lon="6.78652">
        <ele>1231.3300000064</ele>
        <time>2021-07-03T09:34:05.750Z</time>
      </trkpt>
      <trkpt lat="47.09746" lon="6.7868">
        <ele>1230.5299999954</ele>
        <time>2021-07-03T09:34:10.210Z</time>
      </trkpt>
      <trkpt lat="47.09747" lon="6.7869">
        <ele>1230.26</ele>
        <time>2021-07-03T09:34:11.813Z</time>
      </trkpt>
      <trkpt lat="47.09746" lon="6.78703">
        <ele>1229.9900000102</ele>
        <time>2021-07-03T09:34:14.082Z</time>
      </trkpt>
      <trkpt lat="47.09745" lon="6.78719">
        <ele>1229.5900000058</ele>
        <time>2021-07-03T09:34:16.698Z</time>
      </trkpt>
      <trkpt lat="47.09741" lon="6.78752">
        <ele>1228.9399999905</ele>
        <time>2021-07-03T09:34:22.625Z</time>
      </trkpt>
      <trkpt lat="47.0974" lon="6.78772">
        <ele>1228.56</ele>
        <time>2021-07-03T09:34:26.196Z</time>
      </trkpt>
      <trkpt lat="47.09741" lon="6.78783">
        <ele>1228.66</ele>
        <time>2021-07-03T09:34:33.455Z</time>
      </trkpt>
      <trkpt lat="47.09742" lon="6.78789">
        <ele>1228.389999889</ele>
        <time>2021-07-03T09:34:34.246Z</time>
      </trkpt>
      <trkpt lat="47.09743" lon="6.78795">
        <ele>1227.1</ele>
        <time>2021-07-03T09:34:35.093Z</time>
      </trkpt>
      <trkpt lat="47.09752" lon="6.7884">
        <ele>1223.95</ele>
        <time>2021-07-03T09:34:41.527Z</time>
      </trkpt>
      <trkpt lat="47.09756" lon="6.78858">
        <ele>1224.93</ele>
        <time>2021-07-03T09:35:04.470Z</time>
      </trkpt>
      <trkpt lat="47.09757" lon="6.78873">
        <ele>1224.93</ele>
        <time>2021-07-03T09:35:13.133Z</time>
      </trkpt>
      <trkpt lat="47.09757" lon="6.78882">
        <ele>1224.93</ele>
        <time>2021-07-03T09:35:18.306Z</time>
      </trkpt>
      <trkpt lat="47.09756" lon="6.78891">
        <ele>1224.93</ele>
        <time>2021-07-03T09:35:23.548Z</time>
      </trkpt>
      <trkpt lat="47.09757" lon="6.78901">
        <ele>1225.19</ele>
        <time>2021-07-03T09:35:32.432Z</time>
      </trkpt>
      <trkpt lat="47.09756" lon="6.78907">
        <ele>1225.19</ele>
        <time>2021-07-03T09:35:35.983Z</time>
      </trkpt>
      <trkpt lat="47.09756" lon="6.78921">
        <ele>1225.19</ele>
        <time>2021-07-03T09:35:44.030Z</time>
      </trkpt>
      <trkpt lat="47.09757" lon="6.78927">
        <ele>1224.9300000053</ele>
        <time>2021-07-03T09:35:44.836Z</time>
      </trkpt>
      <trkpt lat="47.09757" lon="6.78933">
        <ele>1225.19</ele>
        <time>2021-07-03T09:35:51.459Z</time>
      </trkpt>
      <trkpt lat="47.09756" lon="6.78935">
        <ele>1225.19</ele>
        <time>2021-07-03T09:35:52.885Z</time>
      </trkpt>
      <trkpt lat="47.09751" lon="6.78965">
        <ele>1223.58</ele>
        <time>2021-07-03T09:35:57.122Z</time>
      </trkpt>
      <trkpt lat="47.09746" lon="6.78984">
        <ele>1222.5699999848</ele>
        <time>2021-07-03T09:35:59.916Z</time>
      </trkpt>
      <trkpt lat="47.09744" lon="6.79001">
        <ele>1221.1599999823</ele>
        <time>2021-07-03T09:36:02.282Z</time>
      </trkpt>
      <trkpt lat="47.09742" lon="6.79017">
        <ele>1219.64</ele>
        <time>2021-07-03T09:36:04.513Z</time>
      </trkpt>
      <trkpt lat="47.09742" lon="6.79036">
        <ele>1217.8800000111</ele>
        <time>2021-07-03T09:36:07.120Z</time>
      </trkpt>
      <trkpt lat="47.09743" lon="6.79059">
        <ele>1216.2299999762</ele>
        <time>2021-07-03T09:36:10.281Z</time>
      </trkpt>
      <trkpt lat="47.09747" lon="6.79077">
        <ele>1215.0599999658</ele>
        <time>2021-07-03T09:36:12.878Z</time>
      </trkpt>
      <trkpt lat="47.09749" lon="6.79088">
        <ele>1214.24</ele>
        <time>2021-07-03T09:36:14.440Z</time>
      </trkpt>
      <trkpt lat="47.0975" lon="6.79103">
        <ele>1213.659999932</ele>
        <time>2021-07-03T09:36:16.491Z</time>
      </trkpt>
      <trkpt lat="47.09749" lon="6.79114">
        <ele>1212.36</ele>
        <time>2021-07-03T09:36:18.014Z</time>
      </trkpt>
      <trkpt lat="47.09746" lon="6.79145">
        <ele>1210.1399999534</ele>
        <time>2021-07-03T09:36:22.308Z</time>
      </trkpt>
      <trkpt lat="47.09745" lon="6.79157">
        <ele>1207.09</ele>
        <time>2021-07-03T09:36:23.967Z</time>
      </trkpt>
      <trkpt lat="47.09746" lon="6.79171">
        <ele>1204.51</ele>
        <time>2021-07-03T09:36:25.898Z</time>
      </trkpt>
      <trkpt lat="47.09748" lon="6.79184">
        <ele>1203.5699999986</ele>
        <time>2021-07-03T09:36:27.726Z</time>
      </trkpt>
      <trkpt lat="47.09749" lon="6.79194">
        <ele>1203.33</ele>
        <time>2021-07-03T09:36:29.399Z</time>
      </trkpt>
      <trkpt lat="47.0975" lon="6.79207">
        <ele>1202.04</ele>
        <time>2021-07-03T09:36:31.193Z</time>
      </trkpt>
      <trkpt lat="47.0975" lon="6.7922">
        <ele>1200.99</ele>
        <time>2021-07-03T09:36:32.977Z</time>
      </trkpt>
      <trkpt lat="47.09747" lon="6.79229">
        <ele>1200.75</ele>
        <time>2021-07-03T09:36:34.630Z</time>
      </trkpt>
      <trkpt lat="47.09745" lon="6.79233">
        <ele>1201.34</ele>
        <time>2021-07-03T09:36:45.634Z</time>
      </trkpt>
      <trkpt lat="47.09744" lon="6.79235">
        <ele>1201.230000011</ele>
        <time>2021-07-03T09:36:45.949Z</time>
      </trkpt>
      <trkpt lat="47.09736" lon="6.79268">
        <ele>1204.04</ele>
        <time>2021-07-03T09:37:49.324Z</time>
      </trkpt>
      <trkpt lat="47.09733" lon="6.79283">
        <ele>1206.0300000148</ele>
        <time>2021-07-03T09:38:23.986Z</time>
      </trkpt>
      <trkpt lat="47.0973" lon="6.79291">
        <ele>1206.62</ele>
        <time>2021-07-03T09:38:36.991Z</time>
      </trkpt>
      <trkpt lat="47.09726" lon="6.7931">
        <ele>1207.09</ele>
        <time>2021-07-03T09:38:53.752Z</time>
      </trkpt>
      <trkpt lat="47.09721" lon="6.79327">
        <ele>1207.09</ele>
        <time>2021-07-03T09:39:04.396Z</time>
      </trkpt>
      <trkpt lat="47.09714" lon="6.79351">
        <ele>1206.9700000003</ele>
        <time>2021-07-03T09:39:17.997Z</time>
      </trkpt>
      <trkpt lat="47.09704" lon="6.79386">
        <ele>1207.7900000028</ele>
        <time>2021-07-03T09:39:48.756Z</time>
      </trkpt>
      <trkpt lat="47.09702" lon="6.79396">
        <ele>1208.6099999924</ele>
        <time>2021-07-03T09:40:07.121Z</time>
      </trkpt>
      <trkpt lat="47.097" lon="6.79402">
        <ele>1208.3800000012</ele>
        <time>2021-07-03T09:40:08.077Z</time>
      </trkpt>
      <trkpt lat="47.09697" lon="6.79412">
        <ele>1207.44</ele>
        <time>2021-07-03T09:40:09.576Z</time>
      </trkpt>
      <trkpt lat="47.09697" lon="6.79417">
        <ele>1206.9699999788</ele>
        <time>2021-07-03T09:40:10.262Z</time>
      </trkpt>
      <trkpt lat="47.09697" lon="6.79421">
        <ele>1206.68</ele>
        <time>2021-07-03T09:40:10.811Z</time>
      </trkpt>
      <trkpt lat="47.09698" lon="6.79421">
        <ele>1206.68</ele>
        <time>2021-07-03T09:40:11.655Z</time>
      </trkpt>
      <trkpt lat="47.09697" lon="6.79421">
        <ele>1206.68</ele>
        <time>2021-07-03T09:40:12.499Z</time>
      </trkpt>
      <trkpt lat="47.09697" lon="6.79427">
        <ele>1206.380000021</ele>
        <time>2021-07-03T09:40:13.322Z</time>
      </trkpt>
      <trkpt lat="47.09697" lon="6.79438">
        <ele>1205.8000000286</ele>
        <time>2021-07-03T09:40:14.831Z</time>
      </trkpt>
      <trkpt lat="47.09696" lon="6.79456">
        <ele>1204.98</ele>
        <time>2021-07-03T09:40:17.100Z</time>
      </trkpt>
      <trkpt lat="47.09695" lon="6.79468">
        <ele>1203.92</ele>
        <time>2021-07-03T09:40:18.758Z</time>
      </trkpt>
      <trkpt lat="47.09694" lon="6.79492">
        <ele>1202.0399999648</ele>
        <time>2021-07-03T09:40:22.057Z</time>
      </trkpt>
      <trkpt lat="47.09691" lon="6.79507">
        <ele>1200.850000038</ele>
        <time>2021-07-03T09:40:24.201Z</time>
      </trkpt>
      <trkpt lat="47.09687" lon="6.79529">
        <ele>1200.49</ele>
        <time>2021-07-03T09:40:28.467Z</time>
      </trkpt>
      <trkpt lat="47.09686" lon="6.79545">
        <ele>1199.8899999944</ele>
        <time>2021-07-03T09:40:30.685Z</time>
      </trkpt>
      <trkpt lat="47.09684" lon="6.79557">
        <ele>1199.35</ele>
        <time>2021-07-03T09:40:32.267Z</time>
      </trkpt>
      <trkpt lat="47.09682" lon="6.79575">
        <ele>1198.73</ele>
        <time>2021-07-03T09:40:34.891Z</time>
      </trkpt>
      <trkpt lat="47.09682" lon="6.79586">
        <ele>1197.84</ele>
        <time>2021-07-03T09:40:36.400Z</time>
      </trkpt>
      <trkpt lat="47.09682" lon="6.79599">
        <ele>1196.9499999539</ele>
        <time>2021-07-03T09:40:38.183Z</time>
      </trkpt>
      <trkpt lat="47.09682" lon="6.79609">
        <ele>1196.24</ele>
        <time>2021-07-03T09:40:39.555Z</time>
      </trkpt>
      <trkpt lat="47.09683" lon="6.7963">
        <ele>1194.7099999839</ele>
        <time>2021-07-03T09:40:42.443Z</time>
      </trkpt>
      <trkpt lat="47.09684" lon="6.79646">
        <ele>1194.01</ele>
        <time>2021-07-03T09:40:44.503Z</time>
      </trkpt>
      <trkpt lat="47.09684" lon="6.79662">
        <ele>1193.76</ele>
        <time>2021-07-03T09:40:47.510Z</time>
      </trkpt>
      <trkpt lat="47.09683" lon="6.79697">
        <ele>1191.06</ele>
        <time>2021-07-03T09:40:52.315Z</time>
      </trkpt>
      <trkpt lat="47.0968" lon="6.79711">
        <ele>1189.2900000038</ele>
        <time>2021-07-03T09:40:54.329Z</time>
      </trkpt>
      <trkpt lat="47.09679" lon="6.79731">
        <ele>1187.07</ele>
        <time>2021-07-03T09:40:57.079Z</time>
      </trkpt>
      <trkpt lat="47.09683" lon="6.79755">
        <ele>1184.57</ele>
        <time>2021-07-03T09:41:00.469Z</time>
      </trkpt>
      <trkpt lat="47.09687" lon="6.79763">
        <ele>1184.1400000326</ele>
        <time>2021-07-03T09:41:01.745Z</time>
      </trkpt>
      <trkpt lat="47.09689" lon="6.79798">
        <ele>1178.4099998692</ele>
        <time>2021-07-03T09:41:06.563Z</time>
      </trkpt>
      <trkpt lat="47.09686" lon="6.79813">
        <ele>1175.0299999676</ele>
        <time>2021-07-03T09:41:08.707Z</time>
      </trkpt>
      <trkpt lat="47.09687" lon="6.79823">
        <ele>1173.8000000244</ele>
        <time>2021-07-03T09:41:10.094Z</time>
      </trkpt>
      <trkpt lat="47.09676" lon="6.79853">
        <ele>1165.87</ele>
        <time>2021-07-03T09:41:14.768Z</time>
      </trkpt>
      <trkpt lat="47.0967" lon="6.79882">
        <ele>1160.52</ele>
        <time>2021-07-03T09:41:18.925Z</time>
      </trkpt>
      <trkpt lat="47.09663" lon="6.7992">
        <ele>1155.6599999757</ele>
        <time>2021-07-03T09:41:24.325Z</time>
      </trkpt>
      <trkpt lat="47.09659" lon="6.79944">
        <ele>1152.31</ele>
        <time>2021-07-03T09:41:27.714Z</time>
      </trkpt>
      <trkpt lat="47.09657" lon="6.79959">
        <ele>1150.7499999964</ele>
        <time>2021-07-03T09:41:29.811Z</time>
      </trkpt>
      <trkpt lat="47.09659" lon="6.79973">
        <ele>1148.74</ele>
        <time>2021-07-03T09:41:31.773Z</time>
      </trkpt>
      <trkpt lat="47.09663" lon="6.79989">
        <ele>1147.99</ele>
        <time>2021-07-03T09:41:33.949Z</time>
      </trkpt>
      <trkpt lat="47.09666" lon="6.80006">
        <ele>1147.210000012</ele>
        <time>2021-07-03T09:41:36.180Z</time>
      </trkpt>
      <trkpt lat="47.09669" lon="6.80028">
        <ele>1146.5299999667</ele>
        <time>2021-07-03T09:41:39.568Z</time>
      </trkpt>
      <trkpt lat="47.09672" lon="6.80044">
        <ele>1145.67</ele>
        <time>2021-07-03T09:41:41.844Z</time>
      </trkpt>
      <trkpt lat="47.09673" lon="6.80049">
        <ele>1145.3900000177</ele>
        <time>2021-07-03T09:41:42.559Z</time>
      </trkpt>
      <trkpt lat="47.09676" lon="6.80071">
        <ele>1144.48</ele>
        <time>2021-07-03T09:41:45.538Z</time>
      </trkpt>
      <trkpt lat="47.09678" lon="6.8009">
        <ele>1142.9299999936</ele>
        <time>2021-07-03T09:41:48.176Z</time>
      </trkpt>
      <trkpt lat="47.09679" lon="6.80103">
        <ele>1142.7600000034</ele>
        <time>2021-07-03T09:41:50.747Z</time>
      </trkpt>
      <trkpt lat="47.0968" lon="6.80119">
        <ele>1142.219999982</ele>
        <time>2021-07-03T09:41:53.071Z</time>
      </trkpt>
      <trkpt lat="47.09681" lon="6.80135">
        <ele>1141.32</ele>
        <time>2021-07-03T09:41:55.274Z</time>
      </trkpt>
      <trkpt lat="47.09695" lon="6.802">
        <ele>1138.12</ele>
        <time>2021-07-03T09:42:04.626Z</time>
      </trkpt>
      <trkpt lat="47.09702" lon="6.80226">
        <ele>1136.9200000115</ele>
        <time>2021-07-03T09:42:08.238Z</time>
      </trkpt>
      <trkpt lat="47.0971" lon="6.80252">
        <ele>1134.12</ele>
        <time>2021-07-03T09:42:12.152Z</time>
      </trkpt>
      <trkpt lat="47.09713" lon="6.80266">
        <ele>1132.52</ele>
        <time>2021-07-03T09:42:14.165Z</time>
      </trkpt>
      <trkpt lat="47.09717" lon="6.80288">
        <ele>1130.52</ele>
        <time>2021-07-03T09:42:17.289Z</time>
      </trkpt>
      <trkpt lat="47.09718" lon="6.803">
        <ele>1129.32</ele>
        <time>2021-07-03T09:42:18.947Z</time>
      </trkpt>
      <trkpt lat="47.0972" lon="6.80323">
        <ele>1128.1199999779</ele>
        <time>2021-07-03T09:42:22.128Z</time>
      </trkpt>
      <trkpt lat="47.09722" lon="6.80329">
        <ele>1127.7200000386</ele>
        <time>2021-07-03T09:42:23.044Z</time>
      </trkpt>
      <trkpt lat="47.09722" lon="6.8034">
        <ele>1127.3200000213</ele>
        <time>2021-07-03T09:42:24.581Z</time>
      </trkpt>
      <trkpt lat="47.09724" lon="6.80361">
        <ele>1125.7199999701</ele>
        <time>2021-07-03T09:42:27.489Z</time>
      </trkpt>
      <trkpt lat="47.09726" lon="6.80376">
        <ele>1124.53</ele>
        <time>2021-07-03T09:42:29.586Z</time>
      </trkpt>
      <trkpt lat="47.09726" lon="6.80383">
        <ele>1123.8799999297</ele>
        <time>2021-07-03T09:42:30.546Z</time>
      </trkpt>
      <trkpt lat="47.09727" lon="6.80388">
        <ele>1123.3299999867</ele>
        <time>2021-07-03T09:42:31.261Z</time>
      </trkpt>
      <trkpt lat="47.09728" lon="6.80393">
        <ele>1123.1900000063</ele>
        <time>2021-07-03T09:42:32.086Z</time>
      </trkpt>
      <trkpt lat="47.09729" lon="6.80407">
        <ele>1122.14</ele>
        <time>2021-07-03T09:42:34.017Z</time>
      </trkpt>
      <trkpt lat="47.09731" lon="6.80416">
        <ele>1121.24</ele>
        <time>2021-07-03T09:42:35.315Z</time>
      </trkpt>
      <trkpt lat="47.09734" lon="6.80428">
        <ele>1120.57</ele>
        <time>2021-07-03T09:42:37.069Z</time>
      </trkpt>
      <trkpt lat="47.09737" lon="6.80437">
        <ele>1120.2</ele>
        <time>2021-07-03T09:42:38.459Z</time>
      </trkpt>
      <trkpt lat="47.09739" lon="6.80444">
        <ele>1119.66</ele>
        <time>2021-07-03T09:42:39.500Z</time>
      </trkpt>
      <trkpt lat="47.09739" lon="6.80445">
        <ele>1119.55</ele>
        <time>2021-07-03T09:42:39.637Z</time>
      </trkpt>
      <trkpt lat="47.09738" lon="6.80455">
        <ele>1117.7700000474</ele>
        <time>2021-07-03T09:42:41.024Z</time>
      </trkpt>
      <trkpt lat="47.09734" lon="6.8048">
        <ele>1113.01</ele>
        <time>2021-07-03T09:42:44.546Z</time>
      </trkpt>
      <trkpt lat="47.09733" lon="6.80487">
        <ele>1112</ele>
        <time>2021-07-03T09:42:45.527Z</time>
      </trkpt>
      <trkpt lat="47.09733" lon="6.80488">
        <ele>1112</ele>
        <time>2021-07-03T09:42:46.102Z</time>
      </trkpt>
      <trkpt lat="47.09733" lon="6.80487">
        <ele>1112</ele>
        <time>2021-07-03T09:42:46.677Z</time>
      </trkpt>
      <trkpt lat="47.09732" lon="6.80491">
        <ele>1110.99</ele>
        <time>2021-07-03T09:42:47.261Z</time>
      </trkpt>
      <trkpt lat="47.09729" lon="6.80501">
        <ele>1109.9</ele>
        <time>2021-07-03T09:42:48.760Z</time>
      </trkpt>
      <trkpt lat="47.09719" lon="6.80529">
        <ele>1105.549999973</ele>
        <time>2021-07-03T09:42:53.098Z</time>
      </trkpt>
      <trkpt lat="47.09717" lon="6.80533">
        <ele>1104.7000000847</ele>
        <time>2021-07-03T09:42:53.778Z</time>
      </trkpt>
      <trkpt lat="47.09715" lon="6.80545">
        <ele>1102.7599999613</ele>
        <time>2021-07-03T09:42:55.473Z</time>
      </trkpt>
      <trkpt lat="47.09716" lon="6.80556">
        <ele>1101.09</ele>
        <time>2021-07-03T09:42:56.995Z</time>
      </trkpt>
      <trkpt lat="47.0972" lon="6.80565">
        <ele>1099.9100000031</ele>
        <time>2021-07-03T09:42:58.469Z</time>
      </trkpt>
      <trkpt lat="47.09716" lon="6.80575">
        <ele>1097.9700000587</ele>
        <time>2021-07-03T09:43:00.060Z</time>
      </trkpt>
      <trkpt lat="47.0972" lon="6.80599">
        <ele>1094.3200000331</ele>
        <time>2021-07-03T09:43:03.450Z</time>
      </trkpt>
      <trkpt lat="47.0973" lon="6.80646">
        <ele>1084.3299999714</ele>
        <time>2021-07-03T09:43:10.204Z</time>
      </trkpt>
      <trkpt lat="47.09735" lon="6.8066">
        <ele>1082.43</ele>
        <time>2021-07-03T09:43:12.373Z</time>
      </trkpt>
      <trkpt lat="47.09743" lon="6.80678">
        <ele>1079.4999999487</ele>
        <time>2021-07-03T09:43:15.321Z</time>
      </trkpt>
      <trkpt lat="47.09748" lon="6.80686">
        <ele>1077.8500000585</ele>
        <time>2021-07-03T09:43:16.811Z</time>
      </trkpt>
      <trkpt lat="47.09751" lon="6.80697">
        <ele>1075.82</ele>
        <time>2021-07-03T09:43:18.436Z</time>
      </trkpt>
      <trkpt lat="47.09751" lon="6.80706">
        <ele>1074.1</ele>
        <time>2021-07-03T09:43:19.671Z</time>
      </trkpt>
      <trkpt lat="47.09749" lon="6.80714">
        <ele>1072.7899999686</ele>
        <time>2021-07-03T09:43:20.840Z</time>
      </trkpt>
      <trkpt lat="47.09749" lon="6.80717">
        <ele>1072.3400000839</ele>
        <time>2021-07-03T09:43:21.251Z</time>
      </trkpt>
      <trkpt lat="47.09752" lon="6.80722">
        <ele>1071.7300000792</ele>
        <time>2021-07-03T09:43:22.165Z</time>
      </trkpt>
      <trkpt lat="47.09745" lon="6.80735">
        <ele>1070.6099999867</ele>
        <time>2021-07-03T09:43:24.439Z</time>
      </trkpt>
      <trkpt lat="47.0974" lon="6.80749">
        <ele>1069.87</ele>
        <time>2021-07-03T09:43:26.607Z</time>
      </trkpt>
      <trkpt lat="47.09738" lon="6.80755">
        <ele>1069.5900000078</ele>
        <time>2021-07-03T09:43:27.481Z</time>
      </trkpt>
      <trkpt lat="47.09734" lon="6.8076">
        <ele>1069.4100000029</ele>
        <time>2021-07-03T09:43:28.766Z</time>
      </trkpt>
      <trkpt lat="47.0973" lon="6.80765">
        <ele>1069.23</ele>
        <time>2021-07-03T09:43:30.051Z</time>
      </trkpt>
      <trkpt lat="47.09728" lon="6.80767">
        <ele>1069.1700000006</ele>
        <time>2021-07-03T09:43:30.705Z</time>
      </trkpt>
      <trkpt lat="47.09707" lon="6.80792">
        <ele>1068.5899999977</ele>
        <time>2021-07-03T09:43:38.295Z</time>
      </trkpt>
      <trkpt lat="47.09702" lon="6.80799">
        <ele>1068.4000000069</ele>
        <time>2021-07-03T09:43:40.109Z</time>
      </trkpt>
      <trkpt lat="47.09697" lon="6.80806">
        <ele>1068.2000000015</ele>
        <time>2021-07-03T09:43:41.894Z</time>
      </trkpt>
      <trkpt lat="47.09685" lon="6.80794">
        <ele>1069.1700000068</ele>
        <time>2021-07-03T09:44:05.980Z</time>
      </trkpt>
      <trkpt lat="47.09674" lon="6.80784">
        <ele>1069.5</ele>
        <time>2021-07-03T09:44:20.233Z</time>
      </trkpt>
      <trkpt lat="47.09665" lon="6.80776">
        <ele>1070.18</ele>
        <time>2021-07-03T09:44:37.412Z</time>
      </trkpt>
      <trkpt lat="47.09656" lon="6.8077">
        <ele>1070.5100000075</ele>
        <time>2021-07-03T09:44:49.434Z</time>
      </trkpt>
      <trkpt lat="47.09648" lon="6.80766">
        <ele>1070.7399999935</ele>
        <time>2021-07-03T09:44:58.939Z</time>
      </trkpt>
      <trkpt lat="47.09625" lon="6.80756">
        <ele>1071.3200000032</ele>
        <time>2021-07-03T09:45:24.954Z</time>
      </trkpt>
      <trkpt lat="47.09615" lon="6.80751">
        <ele>1071.5</ele>
        <time>2021-07-03T09:45:35.522Z</time>
      </trkpt>
      <trkpt lat="47.09606" lon="6.80746">
        <ele>1071.8400000048</ele>
        <time>2021-07-03T09:45:47.535Z</time>
      </trkpt>
      <trkpt lat="47.09598" lon="6.80739">
        <ele>1072.1</ele>
        <time>2021-07-03T09:45:58.099Z</time>
      </trkpt>
      <trkpt lat="47.0959" lon="6.80731">
        <ele>1072.02</ele>
        <time>2021-07-03T09:46:01.304Z</time>
      </trkpt>
      <trkpt lat="47.09583" lon="6.80721">
        <ele>1072.25</ele>
        <time>2021-07-03T09:46:11.817Z</time>
      </trkpt>
      <trkpt lat="47.09575" lon="6.8071">
        <ele>1072.5299999983</ele>
        <time>2021-07-03T09:46:23.896Z</time>
      </trkpt>
      <trkpt lat="47.09566" lon="6.80692">
        <ele>1073.4400000015</ele>
        <time>2021-07-03T09:46:47.892Z</time>
      </trkpt>
      <trkpt lat="47.09559" lon="6.80678">
        <ele>1073.4999999992</ele>
        <time>2021-07-03T09:46:58.364Z</time>
      </trkpt>
      <trkpt lat="47.09543" lon="6.80644">
        <ele>1074.2400000014</ele>
        <time>2021-07-03T09:47:29.661Z</time>
      </trkpt>
      <trkpt lat="47.09534" lon="6.80626">
        <ele>1074.68</ele>
        <time>2021-07-03T09:47:47.129Z</time>
      </trkpt>
      <trkpt lat="47.09492" lon="6.80556">
        <ele>1074.71</ele>
        <time>2021-07-03T09:48:40.996Z</time>
      </trkpt>
      <trkpt lat="47.09483" lon="6.80539">
        <ele>1074.82</ele>
        <time>2021-07-03T09:48:54.288Z</time>
      </trkpt>
      <trkpt lat="47.09484" lon="6.8054">
        <ele>1074.82</ele>
        <time>2021-07-03T09:48:55.310Z</time>
      </trkpt>
      <trkpt lat="47.09483" lon="6.80539">
        <ele>1074.82</ele>
        <time>2021-07-03T09:48:56.331Z</time>
      </trkpt>
      <trkpt lat="47.09492" lon="6.80556">
        <ele>1074.71</ele>
        <time>2021-07-03T09:49:01.238Z</time>
      </trkpt>
      <trkpt lat="47.09493" lon="6.80551">
        <ele>1074.93</ele>
        <time>2021-07-03T09:49:06.923Z</time>
      </trkpt>
      <trkpt lat="47.09492" lon="6.80547">
        <ele>1075.329999993</ele>
        <time>2021-07-03T09:49:16.371Z</time>
      </trkpt>
      <trkpt lat="47.09489" lon="6.80537">
        <ele>1076.13</ele>
        <time>2021-07-03T09:49:34.000Z</time>
      </trkpt>
      <trkpt lat="47.09485" lon="6.80529">
        <ele>1076.5299999981</ele>
        <time>2021-07-03T09:49:44.616Z</time>
      </trkpt>
      <trkpt lat="47.09478" lon="6.80516">
        <ele>1076.93</ele>
        <time>2021-07-03T09:49:58.725Z</time>
      </trkpt>
      <trkpt lat="47.09472" lon="6.80506">
        <ele>1076.93</ele>
        <time>2021-07-03T09:50:06.387Z</time>
      </trkpt>
      <trkpt lat="47.09468" lon="6.80497">
        <ele>1076.93</ele>
        <time>2021-07-03T09:50:12.565Z</time>
      </trkpt>
      <trkpt lat="47.09464" lon="6.80486">
        <ele>1076.93</ele>
        <time>2021-07-03T09:50:19.733Z</time>
      </trkpt>
      <trkpt lat="47.09453" lon="6.80468">
        <ele>1076.93</ele>
        <time>2021-07-03T09:50:33.637Z</time>
      </trkpt>
      <trkpt lat="47.09449" lon="6.80459">
        <ele>1076.93</ele>
        <time>2021-07-03T09:50:39.815Z</time>
      </trkpt>
      <trkpt lat="47.09436" lon="6.80436">
        <ele>1076.93</ele>
        <time>2021-07-03T09:50:56.999Z</time>
      </trkpt>
      <trkpt lat="47.09431" lon="6.80426">
        <ele>1076.93</ele>
        <time>2021-07-03T09:51:04.131Z</time>
      </trkpt>
      <trkpt lat="47.09424" lon="6.80403">
        <ele>1077.5299999937</ele>
        <time>2021-07-03T09:51:25.441Z</time>
      </trkpt>
      <trkpt lat="47.09415" lon="6.8037">
        <ele>1079.53</ele>
        <time>2021-07-03T09:52:10.892Z</time>
      </trkpt>
      <trkpt lat="47.0941" lon="6.80352">
        <ele>1081.13</ele>
        <time>2021-07-03T09:52:47.381Z</time>
      </trkpt>
      <trkpt lat="47.09405" lon="6.80341">
        <ele>1081.53</ele>
        <time>2021-07-03T09:53:00.199Z</time>
      </trkpt>
      <trkpt lat="47.09403" lon="6.80336">
        <ele>1081.9299999996</ele>
        <time>2021-07-03T09:53:08.981Z</time>
      </trkpt>
      <trkpt lat="47.09398" lon="6.8033">
        <ele>1082.3199999876</ele>
        <time>2021-07-03T09:53:19.210Z</time>
      </trkpt>
      <trkpt lat="47.09389" lon="6.80315">
        <ele>1083.13</ele>
        <time>2021-07-03T09:53:40.642Z</time>
      </trkpt>
      <trkpt lat="47.09378" lon="6.80299">
        <ele>1084.72999995</ele>
        <time>2021-07-03T09:54:15.782Z</time>
      </trkpt>
      <trkpt lat="47.09367" lon="6.80283">
        <ele>1085.53</ele>
        <time>2021-07-03T09:54:38.891Z</time>
      </trkpt>
      <trkpt lat="47.09349" lon="6.80255">
        <ele>1087.93</ele>
        <time>2021-07-03T09:55:32.074Z</time>
      </trkpt>
      <trkpt lat="47.09338" lon="6.80235">
        <ele>1089.5299999851</ele>
        <time>2021-07-03T09:56:07.538Z</time>
      </trkpt>
      <trkpt lat="47.09317" lon="6.80193">
        <ele>1091.9300000017</ele>
        <time>2021-07-03T09:57:06.765Z</time>
      </trkpt>
      <trkpt lat="47.093" lon="6.80157">
        <ele>1092.33</ele>
        <time>2021-07-03T09:57:35.477Z</time>
      </trkpt>
      <trkpt lat="47.09291" lon="6.8014">
        <ele>1092.33</ele>
        <time>2021-07-03T09:57:47.856Z</time>
      </trkpt>
      <trkpt lat="47.09288" lon="6.80134">
        <ele>1092.33</ele>
        <time>2021-07-03T09:57:52.135Z</time>
      </trkpt>
      <trkpt lat="47.09258" lon="6.80088">
        <ele>1092.33</ele>
        <time>2021-07-03T09:58:28.753Z</time>
      </trkpt>
      <trkpt lat="47.09248" lon="6.80073">
        <ele>1092.73</ele>
        <time>2021-07-03T09:58:44.981Z</time>
      </trkpt>
      <trkpt lat="47.09246" lon="6.80072">
        <ele>1092.73</ele>
        <time>2021-07-03T09:58:46.765Z</time>
      </trkpt>
      <trkpt lat="47.09242" lon="6.80072">
        <ele>1092.4700000248</ele>
        <time>2021-07-03T09:58:47.513Z</time>
      </trkpt>
      <trkpt lat="47.09238" lon="6.80066">
        <ele>1092.5</ele>
        <time>2021-07-03T09:58:52.584Z</time>
      </trkpt>
      <trkpt lat="47.09235" lon="6.80061">
        <ele>1092.5399999966</ele>
        <time>2021-07-03T09:58:56.751Z</time>
      </trkpt>
      <trkpt lat="47.09233" lon="6.80059">
        <ele>1092.5200000022</ele>
        <time>2021-07-03T09:58:57.552Z</time>
      </trkpt>
      <trkpt lat="47.09231" lon="6.80057">
        <ele>1092.3000000176</ele>
        <time>2021-07-03T09:58:58.040Z</time>
      </trkpt>
      <trkpt lat="47.09227" lon="6.80056">
        <ele>1092.27</ele>
        <time>2021-07-03T09:58:59.400Z</time>
      </trkpt>
      <trkpt lat="47.09226" lon="6.80052">
        <ele>1092.38</ele>
        <time>2021-07-03T09:59:03.153Z</time>
      </trkpt>
      <trkpt lat="47.09224" lon="6.80046">
        <ele>1092.63</ele>
        <time>2021-07-03T09:59:10.094Z</time>
      </trkpt>
      <trkpt lat="47.09217" lon="6.8003">
        <ele>1092.4800000016</ele>
        <time>2021-07-03T09:59:14.197Z</time>
      </trkpt>
      <trkpt lat="47.09204" lon="6.80011">
        <ele>1093.02</ele>
        <time>2021-07-03T09:59:35.400Z</time>
      </trkpt>
      <trkpt lat="47.09181" lon="6.79976">
        <ele>1092.9699999973</ele>
        <time>2021-07-03T10:00:02.731Z</time>
      </trkpt>
      <trkpt lat="47.09179" lon="6.79971">
        <ele>1092.93</ele>
        <time>2021-07-03T10:00:04.006Z</time>
      </trkpt>
      <trkpt lat="47.09178" lon="6.79965">
        <ele>1092.7800000102</ele>
        <time>2021-07-03T10:00:05.021Z</time>
      </trkpt>
      <trkpt lat="47.09177" lon="6.79957">
        <ele>1092.520000003</ele>
        <time>2021-07-03T10:00:06.223Z</time>
      </trkpt>
      <trkpt lat="47.09157" lon="6.79896">
        <ele>1092.6</ele>
        <time>2021-07-03T10:00:45.772Z</time>
      </trkpt>
      <trkpt lat="47.09151" lon="6.79878">
        <ele>1092.9399999975</ele>
        <time>2021-07-03T10:01:00.700Z</time>
      </trkpt>
      <trkpt lat="47.09144" lon="6.79853">
        <ele>1093.4099999961</ele>
        <time>2021-07-03T10:01:20.984Z</time>
      </trkpt>
      <trkpt lat="47.09136" lon="6.79819">
        <ele>1093.6299999973</ele>
        <time>2021-07-03T10:01:43.518Z</time>
      </trkpt>
      <trkpt lat="47.09131" lon="6.79798">
        <ele>1093.4999999966</ele>
        <time>2021-07-03T10:01:48.513Z</time>
      </trkpt>
      <trkpt lat="47.09128" lon="6.79787">
        <ele>1093.45</ele>
        <time>2021-07-03T10:01:54.734Z</time>
      </trkpt>
      <trkpt lat="47.09125" lon="6.79778">
        <ele>1093.57</ele>
        <time>2021-07-03T10:02:01.601Z</time>
      </trkpt>
      <trkpt lat="47.09122" lon="6.7977">
        <ele>1093.5300000006</ele>
        <time>2021-07-03T10:02:06.380Z</time>
      </trkpt>
      <trkpt lat="47.09114" lon="6.79753">
        <ele>1093.83</ele>
        <time>2021-07-03T10:02:21.143Z</time>
      </trkpt>
      <trkpt lat="47.09111" lon="6.79745">
        <ele>1093.92</ele>
        <time>2021-07-03T10:02:27.196Z</time>
      </trkpt>
      <trkpt lat="47.09112" lon="6.79746">
        <ele>1093.92</ele>
        <time>2021-07-03T10:02:28.217Z</time>
      </trkpt>
      <trkpt lat="47.09111" lon="6.79745">
        <ele>1093.92</ele>
        <time>2021-07-03T10:02:29.239Z</time>
      </trkpt>
      <trkpt lat="47.09102" lon="6.79723">
        <ele>1094.0199999994</ele>
        <time>2021-07-03T10:02:44.809Z</time>
      </trkpt>
      <trkpt lat="47.09094" lon="6.79704">
        <ele>1093.96</ele>
        <time>2021-07-03T10:02:56.919Z</time>
      </trkpt>
      <trkpt lat="47.09086" lon="6.79685">
        <ele>1094.06</ele>
        <time>2021-07-03T10:03:10.585Z</time>
      </trkpt>
      <trkpt lat="47.09073" lon="6.7966">
        <ele>1093.74</ele>
        <time>2021-07-03T10:03:17.088Z</time>
      </trkpt>
      <trkpt lat="47.09061" lon="6.79635">
        <ele>1093.2900000058</ele>
        <time>2021-07-03T10:03:22.926Z</time>
      </trkpt>
      <trkpt lat="47.09016" lon="6.79547">
        <ele>1091.03</ele>
        <time>2021-07-03T10:03:42.048Z</time>
      </trkpt>
      <trkpt lat="47.09002" lon="6.79527">
        <ele>1090.07</ele>
        <time>2021-07-03T10:03:46.205Z</time>
      </trkpt>
      <trkpt lat="47.08982" lon="6.79494">
        <ele>1088.1999999835</ele>
        <time>2021-07-03T10:03:51.953Z</time>
      </trkpt>
      <trkpt lat="47.08975" lon="6.79483">
        <ele>1087.6</ele>
        <time>2021-07-03T10:03:53.970Z</time>
      </trkpt>
      <trkpt lat="47.08958" lon="6.79457">
        <ele>1085.76</ele>
        <time>2021-07-03T10:03:58.915Z</time>
      </trkpt>
      <trkpt lat="47.08946" lon="6.79436">
        <ele>1084.4</ele>
        <time>2021-07-03T10:04:02.676Z</time>
      </trkpt>
      <trkpt lat="47.08937" lon="6.79419">
        <ele>1083.07</ele>
        <time>2021-07-03T10:04:05.631Z</time>
      </trkpt>
      <trkpt lat="47.0893" lon="6.79404">
        <ele>1081.7299999567</ele>
        <time>2021-07-03T10:04:08.125Z</time>
      </trkpt>
      <trkpt lat="47.08924" lon="6.79389">
        <ele>1080.4100000231</ele>
        <time>2021-07-03T10:04:10.512Z</time>
      </trkpt>
      <trkpt lat="47.08914" lon="6.79365">
        <ele>1078.0599999462</ele>
        <time>2021-07-03T10:04:14.372Z</time>
      </trkpt>
      <trkpt lat="47.08907" lon="6.79348">
        <ele>1076.44</ele>
        <time>2021-07-03T10:04:17.098Z</time>
      </trkpt>
      <trkpt lat="47.08893" lon="6.79317">
        <ele>1073.05</ele>
        <time>2021-07-03T10:04:22.201Z</time>
      </trkpt>
      <trkpt lat="47.08881" lon="6.79293">
        <ele>1070.1599999402</ele>
        <time>2021-07-03T10:04:26.286Z</time>
      </trkpt>
      <trkpt lat="47.08868" lon="6.79272">
        <ele>1066.12</ele>
        <time>2021-07-03T10:04:30.180Z</time>
      </trkpt>
      <trkpt lat="47.08858" lon="6.79256">
        <ele>1063.609999947</ele>
        <time>2021-07-03T10:04:33.159Z</time>
      </trkpt>
      <trkpt lat="47.08853" lon="6.79249">
        <ele>1062.35</ele>
        <time>2021-07-03T10:04:34.551Z</time>
      </trkpt>
      <trkpt lat="47.08849" lon="6.79245">
        <ele>1061.7400000084</ele>
        <time>2021-07-03T10:04:35.526Z</time>
      </trkpt>
      <trkpt lat="47.08841" lon="6.7924">
        <ele>1060.95</ele>
        <time>2021-07-03T10:04:37.278Z</time>
      </trkpt>
      <trkpt lat="47.08841" lon="6.79235">
        <ele>1061.49</ele>
        <time>2021-07-03T10:04:48.365Z</time>
      </trkpt>
      <trkpt lat="47.08839" lon="6.79232">
        <ele>1061.91</ele>
        <time>2021-07-03T10:04:57.675Z</time>
      </trkpt>
      <trkpt lat="47.08822" lon="6.79199">
        <ele>1072.9600000015</ele>
        <time>2021-07-03T10:06:29.435Z</time>
      </trkpt>
      <trkpt lat="47.0882" lon="6.79192">
        <ele>1073.6999999749</ele>
        <time>2021-07-03T10:06:46.268Z</time>
      </trkpt>
      <trkpt lat="47.08815" lon="6.79162">
        <ele>1075.6</ele>
        <time>2021-07-03T10:07:28.474Z</time>
      </trkpt>
      <trkpt lat="47.08799" lon="6.79117">
        <ele>1075.6000000008</ele>
        <time>2021-07-03T10:07:57.659Z</time>
      </trkpt>
      <trkpt lat="47.08781" lon="6.79073">
        <ele>1075.8</ele>
        <time>2021-07-03T10:08:28.801Z</time>
      </trkpt>
      <trkpt lat="47.08782" lon="6.79074">
        <ele>1075.8</ele>
        <time>2021-07-03T10:08:29.823Z</time>
      </trkpt>
      <trkpt lat="47.08781" lon="6.79073">
        <ele>1075.8</ele>
        <time>2021-07-03T10:08:30.844Z</time>
      </trkpt>
      <trkpt lat="47.08778" lon="6.79066">
        <ele>1075.9999999996</ele>
        <time>2021-07-03T10:08:37.892Z</time>
      </trkpt>
      <trkpt lat="47.08762" lon="6.79026">
        <ele>1075.17</ele>
        <time>2021-07-03T10:08:46.295Z</time>
      </trkpt>
      <trkpt lat="47.08757" lon="6.78994">
        <ele>1074.56</ele>
        <time>2021-07-03T10:08:52.177Z</time>
      </trkpt>
      <trkpt lat="47.0873" lon="6.78944">
        <ele>1079.4599999643</ele>
        <time>2021-07-03T10:10:41.143Z</time>
      </trkpt>
      <trkpt lat="47.08705" lon="6.78875">
        <ele>1080</ele>
        <time>2021-07-03T10:11:30.682Z</time>
      </trkpt>
      <trkpt lat="47.08682" lon="6.78822">
        <ele>1079.9500000079</ele>
        <time>2021-07-03T10:12:06.179Z</time>
      </trkpt>
      <trkpt lat="47.08679" lon="6.78817">
        <ele>1080.5299999535</ele>
        <time>2021-07-03T10:12:19.848Z</time>
      </trkpt>
      <trkpt lat="47.08663" lon="6.78738">
        <ele>1079.7</ele>
        <time>2021-07-03T10:12:36.919Z</time>
      </trkpt>
      <trkpt lat="47.0866" lon="6.78739">
        <ele>1079.09</ele>
        <time>2021-07-03T10:12:37.539Z</time>
      </trkpt>
      <trkpt lat="47.08655" lon="6.7874">
        <ele>1078.6399999943</ele>
        <time>2021-07-03T10:12:38.556Z</time>
      </trkpt>
      <trkpt lat="47.08652" lon="6.7874">
        <ele>1078.55</ele>
        <time>2021-07-03T10:12:39.323Z</time>
      </trkpt>
      <trkpt lat="47.08649" lon="6.78738">
        <ele>1078.370000007</ele>
        <time>2021-07-03T10:12:39.992Z</time>
      </trkpt>
      <trkpt lat="47.08646" lon="6.78736">
        <ele>1078.37</ele>
        <time>2021-07-03T10:12:42.774Z</time>
      </trkpt>
      <trkpt lat="47.08644" lon="6.78735">
        <ele>1078.37</ele>
        <time>2021-07-03T10:12:44.558Z</time>
      </trkpt>
      <trkpt lat="47.08641" lon="6.78735">
        <ele>1078.1900000223</ele>
        <time>2021-07-03T10:12:45.141Z</time>
      </trkpt>
      <trkpt lat="47.08638" lon="6.78736">
        <ele>1078.01</ele>
        <time>2021-07-03T10:12:45.746Z</time>
      </trkpt>
      <trkpt lat="47.08636" lon="6.78739">
        <ele>1077.8300000037</ele>
        <time>2021-07-03T10:12:46.289Z</time>
      </trkpt>
      <trkpt lat="47.08634" lon="6.78734">
        <ele>1078.01</ele>
        <time>2021-07-03T10:12:51.955Z</time>
      </trkpt>
      <trkpt lat="47.08629" lon="6.78727">
        <ele>1078.46</ele>
        <time>2021-07-03T10:13:03.277Z</time>
      </trkpt>
      <trkpt lat="47.08624" lon="6.78724">
        <ele>1079.0899999925</ele>
        <time>2021-07-03T10:13:17.432Z</time>
      </trkpt>
      <trkpt lat="47.08614" lon="6.78717">
        <ele>1079.45</ele>
        <time>2021-07-03T10:13:30.749Z</time>
      </trkpt>
      <trkpt lat="47.08604" lon="6.7871">
        <ele>1079.45</ele>
        <time>2021-07-03T10:13:40.103Z</time>
      </trkpt>
      <trkpt lat="47.086" lon="6.78705">
        <ele>1079.45</ele>
        <time>2021-07-03T10:13:44.538Z</time>
      </trkpt>
      <trkpt lat="47.08597" lon="6.78699">
        <ele>1079.55</ele>
        <time>2021-07-03T10:13:49.761Z</time>
      </trkpt>
      <trkpt lat="47.08592" lon="6.78688">
        <ele>1079.55</ele>
        <time>2021-07-03T10:13:57.365Z</time>
      </trkpt>
      <trkpt lat="47.08589" lon="6.78684">
        <ele>1079.45</ele>
        <time>2021-07-03T10:13:58.462Z</time>
      </trkpt>
      <trkpt lat="47.08586" lon="6.78681">
        <ele>1079.18</ele>
        <time>2021-07-03T10:13:59.194Z</time>
      </trkpt>
      <trkpt lat="47.08582" lon="6.78682">
        <ele>1078.91</ele>
        <time>2021-07-03T10:13:59.943Z</time>
      </trkpt>
      <trkpt lat="47.08575" lon="6.78686">
        <ele>1077.92</ele>
        <time>2021-07-03T10:14:01.457Z</time>
      </trkpt>
      <trkpt lat="47.08569" lon="6.78689">
        <ele>1077.23</ele>
        <time>2021-07-03T10:14:02.734Z</time>
      </trkpt>
      <trkpt lat="47.08557" lon="6.78691">
        <ele>1075.48</ele>
        <time>2021-07-03T10:14:05.167Z</time>
      </trkpt>
      <trkpt lat="47.08546" lon="6.7869">
        <ele>1074.2</ele>
        <time>2021-07-03T10:14:07.388Z</time>
      </trkpt>
      <trkpt lat="47.08528" lon="6.78688">
        <ele>1072.55</ele>
        <time>2021-07-03T10:14:11.025Z</time>
      </trkpt>
      <trkpt lat="47.08513" lon="6.7869">
        <ele>1070.85</ele>
        <time>2021-07-03T10:14:14.060Z</time>
      </trkpt>
      <trkpt lat="47.08504" lon="6.78688">
        <ele>1070.85</ele>
        <time>2021-07-03T10:14:21.745Z</time>
      </trkpt>
      <trkpt lat="47.08494" lon="6.78682">
        <ele>1070.25</ele>
        <time>2021-07-03T10:14:23.923Z</time>
      </trkpt>
      <trkpt lat="47.08495" lon="6.78683">
        <ele>1070.25</ele>
        <time>2021-07-03T10:14:24.945Z</time>
      </trkpt>
      <trkpt lat="47.08494" lon="6.78682">
        <ele>1070.25</ele>
        <time>2021-07-03T10:14:25.966Z</time>
      </trkpt>
      <trkpt lat="47.08492" lon="6.78681">
        <ele>1069.65</ele>
        <time>2021-07-03T10:14:26.392Z</time>
      </trkpt>
      <trkpt lat="47.08476" lon="6.78675">
        <ele>1066.65</ele>
        <time>2021-07-03T10:14:29.719Z</time>
      </trkpt>
      <trkpt lat="47.08452" lon="6.78671">
        <ele>1063.44</ele>
        <time>2021-07-03T10:14:34.586Z</time>
      </trkpt>
      <trkpt lat="47.0842" lon="6.78664">
        <ele>1059.14</ele>
        <time>2021-07-03T10:14:41.105Z</time>
      </trkpt>
      <trkpt lat="47.08396" lon="6.78658">
        <ele>1056.56</ele>
        <time>2021-07-03T10:14:46.010Z</time>
      </trkpt>
      <trkpt lat="47.08388" lon="6.78656">
        <ele>1054.9499998862</ele>
        <time>2021-07-03T10:14:47.645Z</time>
      </trkpt>
      <trkpt lat="47.08384" lon="6.78656">
        <ele>1053.9300000815</ele>
        <time>2021-07-03T10:14:48.451Z</time>
      </trkpt>
      <trkpt lat="47.08359" lon="6.78658">
        <ele>1048.76</ele>
        <time>2021-07-03T10:14:53.496Z</time>
      </trkpt>
      <trkpt lat="47.08345" lon="6.7866">
        <ele>1046.96</ele>
        <time>2021-07-03T10:14:56.330Z</time>
      </trkpt>
      <trkpt lat="47.0833" lon="6.78656">
        <ele>1046.7099999698</ele>
        <time>2021-07-03T10:15:00.876Z</time>
      </trkpt>
      <trkpt lat="47.0832" lon="6.78655">
        <ele>1045.6099999977</ele>
        <time>2021-07-03T10:15:02.896Z</time>
      </trkpt>
      <trkpt lat="47.08311" lon="6.78653">
        <ele>1044.33</ele>
        <time>2021-07-03T10:15:04.730Z</time>
      </trkpt>
      <trkpt lat="47.08299" lon="6.78648">
        <ele>1042.679999953</ele>
        <time>2021-07-03T10:15:07.243Z</time>
      </trkpt>
      <trkpt lat="47.0829" lon="6.78641">
        <ele>1040.12</ele>
        <time>2021-07-03T10:15:09.295Z</time>
      </trkpt>
      <trkpt lat="47.08285" lon="6.78636">
        <ele>1039.4499999473</ele>
        <time>2021-07-03T10:15:10.514Z</time>
      </trkpt>
      <trkpt lat="47.0828" lon="6.78633">
        <ele>1038.81</ele>
        <time>2021-07-03T10:15:11.603Z</time>
      </trkpt>
      <trkpt lat="47.08275" lon="6.78633">
        <ele>1038.2200000489</ele>
        <time>2021-07-03T10:15:12.610Z</time>
      </trkpt>
      <trkpt lat="47.0827" lon="6.78635">
        <ele>1037.72</ele>
        <time>2021-07-03T10:15:13.654Z</time>
      </trkpt>
      <trkpt lat="47.08277" lon="6.78626">
        <ele>1038.6899999937</ele>
        <time>2021-07-03T10:15:34.967Z</time>
      </trkpt>
      <trkpt lat="47.08273" lon="6.78623">
        <ele>1038.4600000174</ele>
        <time>2021-07-03T10:15:35.906Z</time>
      </trkpt>
      <trkpt lat="47.08262" lon="6.78622">
        <ele>1037.51</ele>
        <time>2021-07-03T10:15:38.127Z</time>
      </trkpt>
      <trkpt lat="47.08257" lon="6.78621">
        <ele>1037.34</ele>
        <time>2021-07-03T10:15:39.369Z</time>
      </trkpt>
      <trkpt lat="47.08251" lon="6.78619">
        <ele>1037.1499999961</ele>
        <time>2021-07-03T10:15:40.927Z</time>
      </trkpt>
      <trkpt lat="47.08247" lon="6.78615">
        <ele>1037.0900000016</ele>
        <time>2021-07-03T10:15:42.445Z</time>
      </trkpt>
      <trkpt lat="47.08243" lon="6.78611">
        <ele>1036.97</ele>
        <time>2021-07-03T10:15:43.753Z</time>
      </trkpt>
      <trkpt lat="47.08236" lon="6.78602">
        <ele>1036.75</ele>
        <time>2021-07-03T10:15:46.301Z</time>
      </trkpt>
      <trkpt lat="47.0823" lon="6.78591">
        <ele>1036.199999962</ele>
        <time>2021-07-03T10:15:48.208Z</time>
      </trkpt>
      <trkpt lat="47.08226" lon="6.78583">
        <ele>1035.7000000305</ele>
        <time>2021-07-03T10:15:49.570Z</time>
      </trkpt>
      <trkpt lat="47.08219" lon="6.78573">
        <ele>1034.6499999677</ele>
        <time>2021-07-03T10:15:51.538Z</time>
      </trkpt>
      <trkpt lat="47.08215" lon="6.78578">
        <ele>1033.9900000018</ele>
        <time>2021-07-03T10:15:52.596Z</time>
      </trkpt>
      <trkpt lat="47.0821" lon="6.78582">
        <ele>1032.95</ele>
        <time>2021-07-03T10:15:53.743Z</time>
      </trkpt>
      <trkpt lat="47.08196" lon="6.78589">
        <ele>1031.5199999857</ele>
        <time>2021-07-03T10:15:56.723Z</time>
      </trkpt>
      <trkpt lat="47.08187" lon="6.78593">
        <ele>1030.98</ele>
        <time>2021-07-03T10:15:58.590Z</time>
      </trkpt>
      <trkpt lat="47.08142" lon="6.78618">
        <ele>1028.62</ele>
        <time>2021-07-03T10:16:08.839Z</time>
      </trkpt>
      <trkpt lat="47.08076" lon="6.78654">
        <ele>1025.28</ele>
        <time>2021-07-03T10:16:24.052Z</time>
      </trkpt>
      <trkpt lat="47.08004" lon="6.78692">
        <ele>1021.08</ele>
        <time>2021-07-03T10:16:39.558Z</time>
      </trkpt>
      <trkpt lat="47.07994" lon="6.78698">
        <ele>1020.220000023</ele>
        <time>2021-07-03T10:16:41.735Z</time>
      </trkpt>
      <trkpt lat="47.07979" lon="6.78705">
        <ele>1018.7100000188</ele>
        <time>2021-07-03T10:16:44.906Z</time>
      </trkpt>
      <trkpt lat="47.07905" lon="6.78554">
        <ele>1017.03</ele>
        <time>2021-07-03T10:17:24.195Z</time>
      </trkpt>
      <trkpt lat="47.07888" lon="6.78519">
        <ele>1017.03</ele>
        <time>2021-07-03T10:17:48.914Z</time>
      </trkpt>
      <trkpt lat="47.07881" lon="6.78507">
        <ele>1017.03</ele>
        <time>2021-07-03T10:17:57.999Z</time>
      </trkpt>
      <trkpt lat="47.07871" lon="6.78492">
        <ele>1016.05</ele>
        <time>2021-07-03T10:18:00.879Z</time>
      </trkpt>
      <trkpt lat="47.07872" lon="6.78491">
        <ele>1016.05</ele>
        <time>2021-07-03T10:18:01.901Z</time>
      </trkpt>
      <trkpt lat="47.07872" lon="6.7849">
        <ele>1016.05</ele>
        <time>2021-07-03T10:18:02.476Z</time>
      </trkpt>
      <trkpt lat="47.07872" lon="6.7849">
        <ele>1016.05</ele>
        <time>2021-07-03T10:18:02.476Z</time>
      </trkpt>
      <trkpt lat="47.07873" lon="6.78488">
        <ele>1016.05</ele>
        <time>2021-07-03T10:18:03.902Z</time>
      </trkpt>
      <trkpt lat="47.07873" lon="6.78486">
        <ele>1016.05</ele>
        <time>2021-07-03T10:18:05.052Z</time>
      </trkpt>
      <trkpt lat="47.07873" lon="6.78485">
        <ele>1016.05</ele>
        <time>2021-07-03T10:18:05.627Z</time>
      </trkpt>
      <trkpt lat="47.07873" lon="6.78483">
        <ele>1016.05</ele>
        <time>2021-07-03T10:18:06.777Z</time>
      </trkpt>
      <trkpt lat="47.07872" lon="6.78481">
        <ele>1016.05</ele>
        <time>2021-07-03T10:18:08.204Z</time>
      </trkpt>
      <trkpt lat="47.07871" lon="6.7848">
        <ele>1016.05</ele>
        <time>2021-07-03T10:18:09.226Z</time>
      </trkpt>
      <trkpt lat="47.07878" lon="6.78468">
        <ele>1016.64</ele>
        <time>2021-07-03T10:18:25.631Z</time>
      </trkpt>
      <trkpt lat="47.0788" lon="6.78463">
        <ele>1016.36</ele>
        <time>2021-07-03T10:18:26.427Z</time>
      </trkpt>
      <trkpt lat="47.0788" lon="6.78458">
        <ele>1016.36</ele>
        <time>2021-07-03T10:18:29.302Z</time>
      </trkpt>
      <trkpt lat="47.07879" lon="6.78453">
        <ele>1016.36</ele>
        <time>2021-07-03T10:18:32.298Z</time>
      </trkpt>
      <trkpt lat="47.07869" lon="6.78417">
        <ele>1016.7499999963</ele>
        <time>2021-07-03T10:18:58.140Z</time>
      </trkpt>
      <trkpt lat="47.0786" lon="6.7838">
        <ele>1017.4799999977</ele>
        <time>2021-07-03T10:19:28.258Z</time>
      </trkpt>
      <trkpt lat="47.07853" lon="6.78346">
        <ele>1017.02</ele>
        <time>2021-07-03T10:19:35.247Z</time>
      </trkpt>
      <trkpt lat="47.0785" lon="6.78332">
        <ele>1017.26</ele>
        <time>2021-07-03T10:19:46.066Z</time>
      </trkpt>
      <trkpt lat="47.07844" lon="6.78306">
        <ele>1017.6499999918</ele>
        <time>2021-07-03T10:20:05.580Z</time>
      </trkpt>
      <trkpt lat="47.07836" lon="6.78269">
        <ele>1018.140000001</ele>
        <time>2021-07-03T10:20:32.466Z</time>
      </trkpt>
      <trkpt lat="47.07829" lon="6.78249">
        <ele>1018.2200000039</ele>
        <time>2021-07-03T10:20:46.045Z</time>
      </trkpt>
      <trkpt lat="47.07825" lon="6.78237">
        <ele>1018.3</ele>
        <time>2021-07-03T10:20:54.401Z</time>
      </trkpt>
      <trkpt lat="47.07818" lon="6.78213">
        <ele>1018.4399999977</ele>
        <time>2021-07-03T10:21:10.580Z</time>
      </trkpt>
      <trkpt lat="47.07805" lon="6.78177">
        <ele>1018.73</ele>
        <time>2021-07-03T10:21:36.490Z</time>
      </trkpt>
      <trkpt lat="47.07796" lon="6.7815">
        <ele>1018.9000000001</ele>
        <time>2021-07-03T10:21:55.198Z</time>
      </trkpt>
      <trkpt lat="47.07791" lon="6.78134">
        <ele>1018.93</ele>
        <time>2021-07-03T10:22:05.558Z</time>
      </trkpt>
      <trkpt lat="47.0777" lon="6.78071">
        <ele>1019.64</ele>
        <time>2021-07-03T10:22:52.247Z</time>
      </trkpt>
      <trkpt lat="47.07754" lon="6.78027">
        <ele>1020.73</ele>
        <time>2021-07-03T10:23:32.867Z</time>
      </trkpt>
      <trkpt lat="47.07752" lon="6.78021">
        <ele>1021.28</ele>
        <time>2021-07-03T10:23:45.410Z</time>
      </trkpt>
      <trkpt lat="47.07753" lon="6.78021">
        <ele>1021.28</ele>
        <time>2021-07-03T10:23:46.255Z</time>
      </trkpt>
      <trkpt lat="47.07752" lon="6.78021">
        <ele>1021.28</ele>
        <time>2021-07-03T10:23:47.099Z</time>
      </trkpt>
      <trkpt lat="47.07731" lon="6.77958">
        <ele>1021.8400000008</ele>
        <time>2021-07-03T10:24:32.283Z</time>
      </trkpt>
      <trkpt lat="47.0773" lon="6.77956">
        <ele>1021.9399999972</ele>
        <time>2021-07-03T10:24:34.937Z</time>
      </trkpt>
      <trkpt lat="47.07718" lon="6.7792">
        <ele>1023.04</ele>
        <time>2021-07-03T10:25:11.470Z</time>
      </trkpt>
      <trkpt lat="47.07704" lon="6.77886">
        <ele>1023.85</ele>
        <time>2021-07-03T10:25:42.947Z</time>
      </trkpt>
      <trkpt lat="47.07694" lon="6.77865">
        <ele>1024.53</ele>
        <time>2021-07-03T10:26:05.859Z</time>
      </trkpt>
      <trkpt lat="47.07686" lon="6.77847">
        <ele>1025.62</ele>
        <time>2021-07-03T10:26:31.596Z</time>
      </trkpt>
      <trkpt lat="47.07677" lon="6.77828">
        <ele>1026.94</ele>
        <time>2021-07-03T10:27:01.472Z</time>
      </trkpt>
      <trkpt lat="47.07668" lon="6.77812">
        <ele>1028.07</ele>
        <time>2021-07-03T10:27:27.433Z</time>
      </trkpt>
      <trkpt lat="47.0766" lon="6.77798">
        <ele>1029.61</ele>
        <time>2021-07-03T10:28:02.983Z</time>
      </trkpt>
      <trkpt lat="47.07653" lon="6.77787">
        <ele>1030.7</ele>
        <time>2021-07-03T10:28:26.971Z</time>
      </trkpt>
      <trkpt lat="47.07632" lon="6.77761">
        <ele>1032.94</ele>
        <time>2021-07-03T10:29:18.092Z</time>
      </trkpt>
      <trkpt lat="47.07623" lon="6.77752">
        <ele>1033.38</ele>
        <time>2021-07-03T10:29:32.688Z</time>
      </trkpt>
      <trkpt lat="47.07587" lon="6.77708">
        <ele>1033.47</ele>
        <time>2021-07-03T10:30:12.945Z</time>
      </trkpt>
      <trkpt lat="47.07566" lon="6.7768">
        <ele>1032.99</ele>
        <time>2021-07-03T10:30:21.350Z</time>
      </trkpt>
      <trkpt lat="47.07555" lon="6.77664">
        <ele>1032.1499999953</ele>
        <time>2021-07-03T10:30:24.505Z</time>
      </trkpt>
      <trkpt lat="47.07553" lon="6.77661">
        <ele>1032.0900000005</ele>
        <time>2021-07-03T10:30:25.313Z</time>
      </trkpt>
      <trkpt lat="47.07551" lon="6.77656">
        <ele>1031.9799999991</ele>
        <time>2021-07-03T10:30:26.345Z</time>
      </trkpt>
      <trkpt lat="47.07549" lon="6.77653">
        <ele>1031.9500000072</ele>
        <time>2021-07-03T10:30:27.264Z</time>
      </trkpt>
      <trkpt lat="47.07549" lon="6.77649">
        <ele>1032</ele>
        <time>2021-07-03T10:30:30.029Z</time>
      </trkpt>
      <trkpt lat="47.07549" lon="6.77646">
        <ele>1032.069999989</ele>
        <time>2021-07-03T10:30:32.543Z</time>
      </trkpt>
      <trkpt lat="47.07549" lon="6.77643">
        <ele>1032.1899999786</ele>
        <time>2021-07-03T10:30:35.743Z</time>
      </trkpt>
      <trkpt lat="47.07552" lon="6.77633">
        <ele>1032.72</ele>
        <time>2021-07-03T10:30:48.504Z</time>
      </trkpt>
      <trkpt lat="47.07552" lon="6.77629">
        <ele>1032.9899999744</ele>
        <time>2021-07-03T10:30:54.434Z</time>
      </trkpt>
      <trkpt lat="47.07553" lon="6.77624">
        <ele>1033.22</ele>
        <time>2021-07-03T10:31:00.237Z</time>
      </trkpt>
      <trkpt lat="47.07552" lon="6.77614">
        <ele>1033.77</ele>
        <time>2021-07-03T10:31:12.876Z</time>
      </trkpt>
      <trkpt lat="47.07551" lon="6.77602">
        <ele>1034.74</ele>
        <time>2021-07-03T10:31:34.751Z</time>
      </trkpt>
      <trkpt lat="47.07548" lon="6.77589">
        <ele>1035.33</ele>
        <time>2021-07-03T10:31:49.850Z</time>
      </trkpt>
      <trkpt lat="47.07544" lon="6.77573">
        <ele>1036.03</ele>
        <time>2021-07-03T10:32:08.228Z</time>
      </trkpt>
      <trkpt lat="47.07536" lon="6.77549">
        <ele>1038.19</ele>
        <time>2021-07-03T10:32:57.086Z</time>
      </trkpt>
      <trkpt lat="47.07519" lon="6.77495">
        <ele>1042.78</ele>
        <time>2021-07-03T10:34:39.281Z</time>
      </trkpt>
      <trkpt lat="47.07524" lon="6.77512">
        <ele>1040.48</ele>
        <time>2021-07-03T10:34:41.822Z</time>
      </trkpt>
      <trkpt lat="47.07525" lon="6.77513">
        <ele>1040.48</ele>
        <time>2021-07-03T10:34:42.844Z</time>
      </trkpt>
      <trkpt lat="47.07524" lon="6.77512">
        <ele>1040.48</ele>
        <time>2021-07-03T10:34:43.866Z</time>
      </trkpt>
      <trkpt lat="47.07519" lon="6.77495">
        <ele>1042.78</ele>
        <time>2021-07-03T10:35:24.937Z</time>
      </trkpt>
      <trkpt lat="47.07513" lon="6.77475">
        <ele>1044.330000019</ele>
        <time>2021-07-03T10:35:58.992Z</time>
      </trkpt>
      <trkpt lat="47.0751" lon="6.77461">
        <ele>1045.02</ele>
        <time>2021-07-03T10:36:15.851Z</time>
      </trkpt>
      <trkpt lat="47.07508" lon="6.77442">
        <ele>1045.8599999856</ele>
        <time>2021-07-03T10:36:37.158Z</time>
      </trkpt>
      <trkpt lat="47.07506" lon="6.77423">
        <ele>1047.21</ele>
        <time>2021-07-03T10:37:06.804Z</time>
      </trkpt>
      <trkpt lat="47.07505" lon="6.77405">
        <ele>1048.75</ele>
        <time>2021-07-03T10:37:42.605Z</time>
      </trkpt>
      <trkpt lat="47.07506" lon="6.77386">
        <ele>1050.15</ele>
        <time>2021-07-03T10:38:13.469Z</time>
      </trkpt>
      <trkpt lat="47.07508" lon="6.77356">
        <ele>1052.83</ele>
        <time>2021-07-03T10:39:17.649Z</time>
      </trkpt>
      <trkpt lat="47.0751" lon="6.77336">
        <ele>1054.36</ele>
        <time>2021-07-03T10:39:51.557Z</time>
      </trkpt>
      <trkpt lat="47.07512" lon="6.7732">
        <ele>1055.1999999806</ele>
        <time>2021-07-03T10:40:11.244Z</time>
      </trkpt>
      <trkpt lat="47.07513" lon="6.77299">
        <ele>1056.3899999994</ele>
        <time>2021-07-03T10:40:38.251Z</time>
      </trkpt>
      <trkpt lat="47.07515" lon="6.77264">
        <ele>1057.8599999892</ele>
        <time>2021-07-03T10:41:16.431Z</time>
      </trkpt>
      <trkpt lat="47.07515" lon="6.77226">
        <ele>1058.650000001</ele>
        <time>2021-07-03T10:41:46.764Z</time>
      </trkpt>
      <trkpt lat="47.07517" lon="6.77212">
        <ele>1058.75</ele>
        <time>2021-07-03T10:41:55.843Z</time>
      </trkpt>
      <trkpt lat="47.07518" lon="6.77204">
        <ele>1058.8000000005</ele>
        <time>2021-07-03T10:42:00.942Z</time>
      </trkpt>
      <trkpt lat="47.0752" lon="6.77198">
        <ele>1058.81</ele>
        <time>2021-07-03T10:42:04.862Z</time>
      </trkpt>
      <trkpt lat="47.07522" lon="6.7719">
        <ele>1058.8200000039</ele>
        <time>2021-07-03T10:42:09.841Z</time>
      </trkpt>
      <trkpt lat="47.07525" lon="6.77184">
        <ele>1058.9200000031</ele>
        <time>2021-07-03T10:42:15.065Z</time>
      </trkpt>
      <trkpt lat="47.07528" lon="6.77178">
        <ele>1059.0499999972</ele>
        <time>2021-07-03T10:42:20.660Z</time>
      </trkpt>
      <trkpt lat="47.07533" lon="6.77171">
        <ele>1059.23</ele>
        <time>2021-07-03T10:42:28.321Z</time>
      </trkpt>
      <trkpt lat="47.07536" lon="6.77166">
        <ele>1059.2499999976</ele>
        <time>2021-07-03T10:42:32.314Z</time>
      </trkpt>
      <trkpt lat="47.07541" lon="6.7716">
        <ele>1058.97</ele>
        <time>2021-07-03T10:42:33.762Z</time>
      </trkpt>
      <trkpt lat="47.07549" lon="6.77154">
        <ele>1058.23</ele>
        <time>2021-07-03T10:42:35.572Z</time>
      </trkpt>
      <trkpt lat="47.07552" lon="6.77152">
        <ele>1057.91</ele>
        <time>2021-07-03T10:42:36.236Z</time>
      </trkpt>
      <trkpt lat="47.07555" lon="6.77152">
        <ele>1057.5300000024</ele>
        <time>2021-07-03T10:42:36.840Z</time>
      </trkpt>
      <trkpt lat="47.07559" lon="6.77151">
        <ele>1057.1500000298</ele>
        <time>2021-07-03T10:42:37.658Z</time>
      </trkpt>
      <trkpt lat="47.07566" lon="6.77151">
        <ele>1056.6799999945</ele>
        <time>2021-07-03T10:42:39.068Z</time>
      </trkpt>
      <trkpt lat="47.07571" lon="6.77151">
        <ele>1056.5499999979</ele>
        <time>2021-07-03T10:42:40.402Z</time>
      </trkpt>
      <trkpt lat="47.07574" lon="6.7715">
        <ele>1056.5099999973</ele>
        <time>2021-07-03T10:42:41.360Z</time>
      </trkpt>
      <trkpt lat="47.07576" lon="6.77147">
        <ele>1056.4600000012</ele>
        <time>2021-07-03T10:42:42.201Z</time>
      </trkpt>
      <trkpt lat="47.07578" lon="6.77145">
        <ele>1056.48</ele>
        <time>2021-07-03T10:42:44.411Z</time>
      </trkpt>
      <trkpt lat="47.07579" lon="6.77141">
        <ele>1056.52</ele>
        <time>2021-07-03T10:42:47.216Z</time>
      </trkpt>
      <trkpt lat="47.0758" lon="6.77138">
        <ele>1056.59</ele>
        <time>2021-07-03T10:42:49.890Z</time>
      </trkpt>
      <trkpt lat="47.07581" lon="6.77134">
        <ele>1056.6700000185</ele>
        <time>2021-07-03T10:42:53.168Z</time>
      </trkpt>
      <trkpt lat="47.0758" lon="6.7713">
        <ele>1056.79</ele>
        <time>2021-07-03T10:42:57.112Z</time>
      </trkpt>
      <trkpt lat="47.0758" lon="6.77127">
        <ele>1056.8999999988</ele>
        <time>2021-07-03T10:43:00.206Z</time>
      </trkpt>
      <trkpt lat="47.07579" lon="6.77122">
        <ele>1057.01</ele>
        <time>2021-07-03T10:43:04.391Z</time>
      </trkpt>
      <trkpt lat="47.07577" lon="6.77118">
        <ele>1057.09</ele>
        <time>2021-07-03T10:43:08.034Z</time>
      </trkpt>
      <trkpt lat="47.07575" lon="6.77114">
        <ele>1057.1600000005</ele>
        <time>2021-07-03T10:43:11.556Z</time>
      </trkpt>
      <trkpt lat="47.07573" lon="6.77111">
        <ele>1057.239999992</ele>
        <time>2021-07-03T10:43:14.802Z</time>
      </trkpt>
      <trkpt lat="47.0757" lon="6.77108">
        <ele>1057.3599999993</ele>
        <time>2021-07-03T10:43:19.198Z</time>
      </trkpt>
      <trkpt lat="47.07565" lon="6.77104">
        <ele>1057.5999999892</ele>
        <time>2021-07-03T10:43:27.029Z</time>
      </trkpt>
      <trkpt lat="47.07558" lon="6.77101">
        <ele>1057.9999999916</ele>
        <time>2021-07-03T10:43:38.148Z</time>
      </trkpt>
      <trkpt lat="47.07555" lon="6.77099">
        <ele>1057.8900000008</ele>
        <time>2021-07-03T10:43:38.962Z</time>
      </trkpt>
      <trkpt lat="47.07551" lon="6.77094">
        <ele>1058.08999999</ele>
        <time>2021-07-03T10:43:45.772Z</time>
      </trkpt>
      <trkpt lat="47.07547" lon="6.77087">
        <ele>1058.0600000017</ele>
        <time>2021-07-03T10:43:50.665Z</time>
      </trkpt>
      <trkpt lat="47.07544" lon="6.7708">
        <ele>1058.1</ele>
        <time>2021-07-03T10:43:55.752Z</time>
      </trkpt>
      <trkpt lat="47.07542" lon="6.77068">
        <ele>1058.3999999995</ele>
        <time>2021-07-03T10:44:06.302Z</time>
      </trkpt>
      <trkpt lat="47.07539" lon="6.77031">
        <ele>1058.7600000013</ele>
        <time>2021-07-03T10:44:30.928Z</time>
      </trkpt>
      <trkpt lat="47.07536" lon="6.77009">
        <ele>1059.19</ele>
        <time>2021-07-03T10:44:48.310Z</time>
      </trkpt>
      <trkpt lat="47.07532" lon="6.76994">
        <ele>1059.470000002</ele>
        <time>2021-07-03T10:45:00.399Z</time>
      </trkpt>
      <trkpt lat="47.07528" lon="6.7698">
        <ele>1059.6299999952</ele>
        <time>2021-07-03T10:45:10.571Z</time>
      </trkpt>
      <trkpt lat="47.07523" lon="6.76966">
        <ele>1059.9299999965</ele>
        <time>2021-07-03T10:45:22.777Z</time>
      </trkpt>
      <trkpt lat="47.07509" lon="6.76936">
        <ele>1060.2599999984</ele>
        <time>2021-07-03T10:45:46.596Z</time>
      </trkpt>
      <trkpt lat="47.07504" lon="6.76927">
        <ele>1060.0500000035</ele>
        <time>2021-07-03T10:45:48.694Z</time>
      </trkpt>
      <trkpt lat="47.07503" lon="6.76924">
        <ele>1060.0699999982</ele>
        <time>2021-07-03T10:45:50.783Z</time>
      </trkpt>
      <trkpt lat="47.07498" lon="6.76918">
        <ele>1060.1799999902</ele>
        <time>2021-07-03T10:45:57.244Z</time>
      </trkpt>
      <trkpt lat="47.07493" lon="6.76914">
        <ele>1060.03</ele>
        <time>2021-07-03T10:45:58.757Z</time>
      </trkpt>
      <trkpt lat="47.07487" lon="6.7691">
        <ele>1060.0999999999</ele>
        <time>2021-07-03T10:46:04.921Z</time>
      </trkpt>
      <trkpt lat="47.07467" lon="6.76904">
        <ele>1061.2400000213</ele>
        <time>2021-07-03T10:46:36.259Z</time>
      </trkpt>
      <trkpt lat="47.07463" lon="6.76902">
        <ele>1061.64</ele>
        <time>2021-07-03T10:46:45.078Z</time>
      </trkpt>
      <trkpt lat="47.07456" lon="6.76898">
        <ele>1062.020000024</ele>
        <time>2021-07-03T10:46:56.211Z</time>
      </trkpt>
      <trkpt lat="47.07451" lon="6.76893">
        <ele>1062.3300000283</ele>
        <time>2021-07-03T10:47:05.216Z</time>
      </trkpt>
      <trkpt lat="47.07448" lon="6.7689">
        <ele>1062.54</ele>
        <time>2021-07-03T10:47:10.865Z</time>
      </trkpt>
      <trkpt lat="47.07445" lon="6.76885">
        <ele>1062.7199999971</ele>
        <time>2021-07-03T10:47:16.883Z</time>
      </trkpt>
      <trkpt lat="47.07442" lon="6.7688">
        <ele>1062.8500000101</ele>
        <time>2021-07-03T10:47:22.078Z</time>
      </trkpt>
      <trkpt lat="47.07439" lon="6.76876">
        <ele>1062.9699999936</ele>
        <time>2021-07-03T10:47:26.773Z</time>
      </trkpt>
      <trkpt lat="47.07437" lon="6.76868">
        <ele>1063.2</ele>
        <time>2021-07-03T10:47:34.466Z</time>
      </trkpt>
      <trkpt lat="47.07426" lon="6.76827">
        <ele>1063.7499999983</ele>
        <time>2021-07-03T10:48:04.918Z</time>
      </trkpt>
      <trkpt lat="47.07423" lon="6.76814">
        <ele>1063.6600000005</ele>
        <time>2021-07-03T10:48:07.958Z</time>
      </trkpt>
      <trkpt lat="47.0742" lon="6.76808">
        <ele>1063.68</ele>
        <time>2021-07-03T10:48:12.399Z</time>
      </trkpt>
      <trkpt lat="47.07419" lon="6.76804">
        <ele>1063.68</ele>
        <time>2021-07-03T10:48:14.849Z</time>
      </trkpt>
      <trkpt lat="47.07415" lon="6.76798">
        <ele>1063.72</ele>
        <time>2021-07-03T10:48:20.008Z</time>
      </trkpt>
      <trkpt lat="47.07413" lon="6.76795">
        <ele>1063.7299999994</ele>
        <time>2021-07-03T10:48:22.502Z</time>
      </trkpt>
      <trkpt lat="47.0741" lon="6.76791">
        <ele>1063.77</ele>
        <time>2021-07-03T10:48:26.263Z</time>
      </trkpt>
      <trkpt lat="47.07405" lon="6.76786">
        <ele>1063.869999994</ele>
        <time>2021-07-03T10:48:32.282Z</time>
      </trkpt>
      <trkpt lat="47.07398" lon="6.76781">
        <ele>1064.26</ele>
        <time>2021-07-03T10:48:43.783Z</time>
      </trkpt>
      <trkpt lat="47.07396" lon="6.76777">
        <ele>1064.48</ele>
        <time>2021-07-03T10:48:49.320Z</time>
      </trkpt>
      <trkpt lat="47.07393" lon="6.76774">
        <ele>1064.66</ele>
        <time>2021-07-03T10:48:54.664Z</time>
      </trkpt>
      <trkpt lat="47.07391" lon="6.7677">
        <ele>1064.7999999908</ele>
        <time>2021-07-03T10:48:59.263Z</time>
      </trkpt>
      <trkpt lat="47.07389" lon="6.76766">
        <ele>1064.88</ele>
        <time>2021-07-03T10:49:02.906Z</time>
      </trkpt>
      <trkpt lat="47.07387" lon="6.76758">
        <ele>1064.9799999949</ele>
        <time>2021-07-03T10:49:08.725Z</time>
      </trkpt>
      <trkpt lat="47.07383" lon="6.76745">
        <ele>1065.19</ele>
        <time>2021-07-03T10:49:18.953Z</time>
      </trkpt>
      <trkpt lat="47.07378" lon="6.76729">
        <ele>1065.49</ele>
        <time>2021-07-03T10:49:32.086Z</time>
      </trkpt>
      <trkpt lat="47.07371" lon="6.76711">
        <ele>1065.9900000013</ele>
        <time>2021-07-03T10:49:49.730Z</time>
      </trkpt>
      <trkpt lat="47.07366" lon="6.76702">
        <ele>1066.5400000206</ele>
        <time>2021-07-03T10:50:03.122Z</time>
      </trkpt>
      <trkpt lat="47.07361" lon="6.76694">
        <ele>1067.4000000044</ele>
        <time>2021-07-03T10:50:22.424Z</time>
      </trkpt>
      <trkpt lat="47.07358" lon="6.76688">
        <ele>1067.6899999892</ele>
        <time>2021-07-03T10:50:30.279Z</time>
      </trkpt>
      <trkpt lat="47.07354" lon="6.76682">
        <ele>1068.16</ele>
        <time>2021-07-03T10:50:40.979Z</time>
      </trkpt>
      <trkpt lat="47.07347" lon="6.76675">
        <ele>1068.5700000098</ele>
        <time>2021-07-03T10:50:53.354Z</time>
      </trkpt>
      <trkpt lat="47.07341" lon="6.76667">
        <ele>1068.8699999927</ele>
        <time>2021-07-03T10:51:03.707Z</time>
      </trkpt>
      <trkpt lat="47.07335" lon="6.76659">
        <ele>1069.36</ele>
        <time>2021-07-03T10:51:16.553Z</time>
      </trkpt>
      <trkpt lat="47.07329" lon="6.76648">
        <ele>1070.1100000363</ele>
        <time>2021-07-03T10:51:33.927Z</time>
      </trkpt>
      <trkpt lat="47.07325" lon="6.7664">
        <ele>1070.55</ele>
        <time>2021-07-03T10:51:45.002Z</time>
      </trkpt>
      <trkpt lat="47.07326" lon="6.7664">
        <ele>1070.55</ele>
        <time>2021-07-03T10:51:45.846Z</time>
      </trkpt>
      <trkpt lat="47.07325" lon="6.7664">
        <ele>1070.55</ele>
        <time>2021-07-03T10:51:46.690Z</time>
      </trkpt>
      <trkpt lat="47.07322" lon="6.76633">
        <ele>1070.9999999798</ele>
        <time>2021-07-03T10:51:57.032Z</time>
      </trkpt>
      <trkpt lat="47.07316" lon="6.76621">
        <ele>1071.49</ele>
        <time>2021-07-03T10:52:11.838Z</time>
      </trkpt>
      <trkpt lat="47.07314" lon="6.76614">
        <ele>1071.7099999846</ele>
        <time>2021-07-03T10:52:18.992Z</time>
      </trkpt>
      <trkpt lat="47.07308" lon="6.76595">
        <ele>1072.4600000146</ele>
        <time>2021-07-03T10:52:40.413Z</time>
      </trkpt>
      <trkpt lat="47.07304" lon="6.76576">
        <ele>1073.3499999772</ele>
        <time>2021-07-03T10:53:02.704Z</time>
      </trkpt>
      <trkpt lat="47.07298" lon="6.76546">
        <ele>1074.4600000146</ele>
        <time>2021-07-03T10:53:34.587Z</time>
      </trkpt>
      <trkpt lat="47.07295" lon="6.76529">
        <ele>1074.8499999977</ele>
        <time>2021-07-03T10:53:48.986Z</time>
      </trkpt>
      <trkpt lat="47.07292" lon="6.76504">
        <ele>1074.99</ele>
        <time>2021-07-03T10:54:04.754Z</time>
      </trkpt>
      <trkpt lat="47.07291" lon="6.76498">
        <ele>1075.1699999991</ele>
        <time>2021-07-03T10:54:10.595Z</time>
      </trkpt>
      <trkpt lat="47.07289" lon="6.76491">
        <ele>1075.43</ele>
        <time>2021-07-03T10:54:18.243Z</time>
      </trkpt>
      <trkpt lat="47.07287" lon="6.76485">
        <ele>1075.85</ele>
        <time>2021-07-03T10:54:27.536Z</time>
      </trkpt>
      <trkpt lat="47.07282" lon="6.76475">
        <ele>1076.6299999823</ele>
        <time>2021-07-03T10:54:44.796Z</time>
      </trkpt>
      <trkpt lat="47.07277" lon="6.76463">
        <ele>1077.3000000123</ele>
        <time>2021-07-03T10:55:01.066Z</time>
      </trkpt>
      <trkpt lat="47.07274" lon="6.76454">
        <ele>1077.5699999848</ele>
        <time>2021-07-03T10:55:10.103Z</time>
      </trkpt>
      <trkpt lat="47.0727" lon="6.76445">
        <ele>1077.65</ele>
        <time>2021-07-03T10:55:16.971Z</time>
      </trkpt>
      <trkpt lat="47.07253" lon="6.76393">
        <ele>1078.52</ele>
        <time>2021-07-03T10:55:58.581Z</time>
      </trkpt>
      <trkpt lat="47.07246" lon="6.76368">
        <ele>1079.000000004</ele>
        <time>2021-07-03T10:56:19.002Z</time>
      </trkpt>
      <trkpt lat="47.07238" lon="6.76347">
        <ele>1079.52</ele>
        <time>2021-07-03T10:56:38.509Z</time>
      </trkpt>
      <trkpt lat="47.07234" lon="6.76331">
        <ele>1080.33</ele>
        <time>2021-07-03T10:56:58.198Z</time>
      </trkpt>
      <trkpt lat="47.07231" lon="6.76317">
        <ele>1080.2200000008</ele>
        <time>2021-07-03T10:57:01.390Z</time>
      </trkpt>
      <trkpt lat="47.07228" lon="6.76302">
        <ele>1080.56</ele>
        <time>2021-07-03T10:57:14.097Z</time>
      </trkpt>
      <trkpt lat="47.07225" lon="6.76289">
        <ele>1080.63</ele>
        <time>2021-07-03T10:57:22.571Z</time>
      </trkpt>
      <trkpt lat="47.07218" lon="6.76265">
        <ele>1080.67</ele>
        <time>2021-07-03T10:57:37.901Z</time>
      </trkpt>
      <trkpt lat="47.07203" lon="6.76226">
        <ele>1081.2799999984</ele>
        <time>2021-07-03T10:58:09.433Z</time>
      </trkpt>
      <trkpt lat="47.07176" lon="6.76166">
        <ele>1082.01</ele>
        <time>2021-07-03T10:58:57.327Z</time>
      </trkpt>
      <trkpt lat="47.0717" lon="6.76152">
        <ele>1082.15</ele>
        <time>2021-07-03T10:59:08.061Z</time>
      </trkpt>
      <trkpt lat="47.07158" lon="6.76118">
        <ele>1082.55</ele>
        <time>2021-07-03T10:59:33.682Z</time>
      </trkpt>
      <trkpt lat="47.07152" lon="6.761">
        <ele>1082.73</ele>
        <time>2021-07-03T10:59:46.789Z</time>
      </trkpt>
      <trkpt lat="47.07144" lon="6.76068">
        <ele>1082.57</ele>
        <time>2021-07-03T11:00:04.520Z</time>
      </trkpt>
      <trkpt lat="47.07139" lon="6.7605">
        <ele>1082.7</ele>
        <time>2021-07-03T11:00:16.804Z</time>
      </trkpt>
      <trkpt lat="47.07135" lon="6.76041">
        <ele>1082.8299999967</ele>
        <time>2021-07-03T11:00:24.185Z</time>
      </trkpt>
      <trkpt lat="47.07132" lon="6.76034">
        <ele>1082.7300000008</ele>
        <time>2021-07-03T11:00:25.837Z</time>
      </trkpt>
      <trkpt lat="47.07124" lon="6.76021">
        <ele>1082.6199999987</ele>
        <time>2021-07-03T11:00:29.739Z</time>
      </trkpt>
      <trkpt lat="47.07121" lon="6.76013">
        <ele>1082.5500000039</ele>
        <time>2021-07-03T11:00:31.718Z</time>
      </trkpt>
      <trkpt lat="47.07116" lon="6.76002">
        <ele>1082.4999999967</ele>
        <time>2021-07-03T11:00:38.727Z</time>
      </trkpt>
      <trkpt lat="47.07114" lon="6.75996">
        <ele>1082.460000003</ele>
        <time>2021-07-03T11:00:40.223Z</time>
      </trkpt>
      <trkpt lat="47.0711" lon="6.75986">
        <ele>1082.36</ele>
        <time>2021-07-03T11:00:42.692Z</time>
      </trkpt>
      <trkpt lat="47.07101" lon="6.75959">
        <ele>1081.86</ele>
        <time>2021-07-03T11:00:48.251Z</time>
      </trkpt>
      <trkpt lat="47.07096" lon="6.75943">
        <ele>1081.61</ele>
        <time>2021-07-03T11:00:51.642Z</time>
      </trkpt>
      <trkpt lat="47.07094" lon="6.75937">
        <ele>1081.4700000088</ele>
        <time>2021-07-03T11:00:52.795Z</time>
      </trkpt>
      <trkpt lat="47.07091" lon="6.7593">
        <ele>1081.4300000014</ele>
        <time>2021-07-03T11:00:57.085Z</time>
      </trkpt>
      <trkpt lat="47.07085" lon="6.75915">
        <ele>1081.31</ele>
        <time>2021-07-03T11:01:00.912Z</time>
      </trkpt>
      <trkpt lat="47.07085" lon="6.75916">
        <ele>1081.31</ele>
        <time>2021-07-03T11:01:01.487Z</time>
      </trkpt>
      <trkpt lat="47.07085" lon="6.75915">
        <ele>1081.31</ele>
        <time>2021-07-03T11:01:02.062Z</time>
      </trkpt>
      <trkpt lat="47.07077" lon="6.75898">
        <ele>1081.189999995</ele>
        <time>2021-07-03T11:01:06.706Z</time>
      </trkpt>
      <trkpt lat="47.07073" lon="6.75885">
        <ele>1080.95</ele>
        <time>2021-07-03T11:01:09.336Z</time>
      </trkpt>
      <trkpt lat="47.0707" lon="6.75872">
        <ele>1081.0699999807</ele>
        <time>2021-07-03T11:01:18.282Z</time>
      </trkpt>
      <trkpt lat="47.07069" lon="6.75862">
        <ele>1080.72</ele>
        <time>2021-07-03T11:01:19.725Z</time>
      </trkpt>
      <trkpt lat="47.07068" lon="6.75855">
        <ele>1080.37</ele>
        <time>2021-07-03T11:01:20.707Z</time>
      </trkpt>
      <trkpt lat="47.07068" lon="6.75846">
        <ele>1080.049999978</ele>
        <time>2021-07-03T11:01:21.978Z</time>
      </trkpt>
      <trkpt lat="47.07068" lon="6.75837">
        <ele>1079.6900000043</ele>
        <time>2021-07-03T11:01:23.182Z</time>
      </trkpt>
      <trkpt lat="47.07069" lon="6.75825">
        <ele>1079.22</ele>
        <time>2021-07-03T11:01:24.821Z</time>
      </trkpt>
      <trkpt lat="47.07072" lon="6.75794">
        <ele>1077.99</ele>
        <time>2021-07-03T11:01:29.045Z</time>
      </trkpt>
      <trkpt lat="47.07074" lon="6.75779">
        <ele>1077.38</ele>
        <time>2021-07-03T11:01:31.092Z</time>
      </trkpt>
      <trkpt lat="47.07075" lon="6.75771">
        <ele>1076.86</ele>
        <time>2021-07-03T11:01:32.208Z</time>
      </trkpt>
      <trkpt lat="47.07076" lon="6.75765">
        <ele>1076.2699999859</ele>
        <time>2021-07-03T11:01:33.056Z</time>
      </trkpt>
      <trkpt lat="47.07078" lon="6.7576">
        <ele>1075.8</ele>
        <time>2021-07-03T11:01:33.852Z</time>
      </trkpt>
      <trkpt lat="47.0708" lon="6.75756">
        <ele>1075.3</ele>
        <time>2021-07-03T11:01:34.533Z</time>
      </trkpt>
      <trkpt lat="47.07084" lon="6.75748">
        <ele>1074.5599999906</ele>
        <time>2021-07-03T11:01:35.895Z</time>
      </trkpt>
      <trkpt lat="47.07086" lon="6.75743">
        <ele>1074.2199999998</ele>
        <time>2021-07-03T11:01:36.690Z</time>
      </trkpt>
      <trkpt lat="47.07087" lon="6.7574">
        <ele>1074.0500000262</ele>
        <time>2021-07-03T11:01:37.149Z</time>
      </trkpt>
      <trkpt lat="47.07088" lon="6.75736">
        <ele>1073.89</ele>
        <time>2021-07-03T11:01:37.736Z</time>
      </trkpt>
      <trkpt lat="47.07088" lon="6.75733">
        <ele>1073.79</ele>
        <time>2021-07-03T11:01:38.171Z</time>
      </trkpt>
      <trkpt lat="47.07087" lon="6.75729">
        <ele>1073.6799999955</ele>
        <time>2021-07-03T11:01:38.856Z</time>
      </trkpt>
      <trkpt lat="47.07086" lon="6.75726">
        <ele>1073.61</ele>
        <time>2021-07-03T11:01:39.433Z</time>
      </trkpt>
      <trkpt lat="47.07083" lon="6.7572">
        <ele>1073.46</ele>
        <time>2021-07-03T11:01:40.735Z</time>
      </trkpt>
      <trkpt lat="47.07079" lon="6.75715">
        <ele>1073.49</ele>
        <time>2021-07-03T11:01:45.415Z</time>
      </trkpt>
      <trkpt lat="47.0707" lon="6.75706">
        <ele>1073.680000007</ele>
        <time>2021-07-03T11:01:56.358Z</time>
      </trkpt>
      <trkpt lat="47.07067" lon="6.75703">
        <ele>1073.8</ele>
        <time>2021-07-03T11:02:00.754Z</time>
      </trkpt>
      <trkpt lat="47.07065" lon="6.75699">
        <ele>1073.9500000114</ele>
        <time>2021-07-03T11:02:05.563Z</time>
      </trkpt>
      <trkpt lat="47.07064" lon="6.75695">
        <ele>1074.07</ele>
        <time>2021-07-03T11:02:09.507Z</time>
      </trkpt>
      <trkpt lat="47.07063" lon="6.7569">
        <ele>1074.2999999917</ele>
        <time>2021-07-03T11:02:15.310Z</time>
      </trkpt>
      <trkpt lat="47.07062" lon="6.75684">
        <ele>1074.54</ele>
        <time>2021-07-03T11:02:21.822Z</time>
      </trkpt>
      <trkpt lat="47.07061" lon="6.75668">
        <ele>1075.51</ele>
        <time>2021-07-03T11:02:43.455Z</time>
      </trkpt>
      <trkpt lat="47.07059" lon="6.75646">
        <ele>1076.859999977</ele>
        <time>2021-07-03T11:03:13.515Z</time>
      </trkpt>
      <trkpt lat="47.07079" lon="6.75644">
        <ele>1078.86</ele>
        <time>2021-07-03T11:03:57.432Z</time>
      </trkpt>
      <trkpt lat="47.07086" lon="6.75644">
        <ele>1079.43</ele>
        <time>2021-07-03T11:04:10.447Z</time>
      </trkpt>
      <trkpt lat="47.07087" lon="6.75645">
        <ele>1079.53</ele>
        <time>2021-07-03T11:04:12.719Z</time>
      </trkpt>
      <trkpt lat="47.07088" lon="6.75646">
        <ele>1079.53</ele>
        <time>2021-07-03T11:04:13.741Z</time>
      </trkpt>
    </trkseg>
  </trk>
</gpx>